Observation data for Dozier on 02/17/2017      Previous  Date  Next       Current Mesonet Observations  Soil Data  Daily Summary Page  Observations in Plain Language
KDO1 170601Z 23004KT 07/01 A2983 RMK A01 T00660010  RH  068%=      5-min Rain = 0
KDO1 170602Z 23004KT 07/01 A2983 RMK A01 T00650010  RH  068%=      5-min Rain = 0
KDO1 170603Z 24004KT 07/01 A2982 RMK A01 T00650010  RH  068%=      5-min Rain = 0
KDO1 170604Z 24004KT 06/01 A2982 RMK A01 T00640009  RH  068%=      5-min Rain = 0
KDO1 170605Z 24004KT 06/01 A2982 RMK A01 T00640009  RH  068%=      5-min Rain = 0
KDO1 170606Z 24004KT 06/01 A2982 RMK A01 T00630009  RH  068%=      5-min Rain = 0
KDO1 170607Z 23004KT 06/01 A2982 RMK A01 T00630010  RH  069%=      5-min Rain = 0
KDO1 170608Z 23004KT 06/01 A2982 RMK A01 T00630010  RH  069%=      5-min Rain = 0
KDO1 170609Z 23004KT 06/01 A2982 RMK A01 T00630010  RH  069%=      5-min Rain = 0
KDO1 170610Z 23004KT 06/01 A2982 RMK A01 T00630010  RH  069%=      5-min Rain = 0
KDO1 170611Z 24004KT 06/01 A2982 RMK A01 T00630011  RH  069%=      5-min Rain = 0
KDO1 170612Z 23004KT 06/01 A2982 RMK A01 T00640011  RH  069%=      5-min Rain = 0
KDO1 170613Z 23005KT 06/01 A2982 RMK A01 T00640011  RH  069%=      5-min Rain = 0
KDO1 170614Z 23005KT 06/01 A2982 RMK A01 T00640011  RH  069%=      5-min Rain = 0
KDO1 170615Z 22005KT 07/01 A2982 RMK A01 T00650011  RH  069%=      5-min Rain = 0
KDO1 170616Z 22005KT 07/01 A2982 RMK A01 T00650011  RH  068%=      5-min Rain = 0
KDO1 170617Z 22005KT 07/01 A2982 RMK A01 T00650011  RH  068%=      5-min Rain = 0
KDO1 170618Z 22005KT 07/01 A2982 RMK A01 T00650011  RH  068%=      5-min Rain = 0
KDO1 170619Z 22005KT 07/01 A2982 RMK A01 T00650011  RH  068%=      5-min Rain = 0
KDO1 170620Z 22006KT 07/01 A2982 RMK A01 T00650011  RH  068%=      5-min Rain = 0
KDO1 170621Z 22006KT 07/01 A2982 RMK A01 T00650011  RH  068%=      5-min Rain = 0
KDO1 170622Z 22006KT 07/01 A2982 RMK A01 T00650011  RH  068%=      5-min Rain = 0
KDO1 170623Z 22006KT 07/01 A2982 RMK A01 T00650010  RH  068%=      5-min Rain = 0
KDO1 170624Z 22006KT 07/01 A2982 RMK A01 T00650010  RH  068%=      5-min Rain = 0
KDO1 170625Z 21006KT 06/01 A2982 RMK A01 T00640010  RH  068%=      5-min Rain = 0
KDO1 170626Z 21007KT 06/01 A2982 RMK A01 T00640010  RH  068%=      5-min Rain = 0
KDO1 170627Z 21006KT 07/01 A2982 RMK A01 T00660012  RH  068%=      5-min Rain = 0
KDO1 170628Z 21005KT 07/01 A2982 RMK A01 T00690013  RH  067%=      5-min Rain = 0
KDO1 170629Z 22004KT 07/01 A2982 RMK A01 T00700012  RH  067%=      5-min Rain = 0
KDO1 170630Z 22004KT 07/01 A2982 RMK A01 T00690011  RH  067%=      5-min Rain = 0
KDO1 170631Z 22005KT 07/01 A2982 RMK A01 T00680010  RH  067%=      5-min Rain = 0
KDO1 170632Z 21005KT 07/01 A2982 RMK A01 T00670010  RH  067%=      5-min Rain = 0
KDO1 170633Z 22005KT 07/01 A2982 RMK A01 T00660009  RH  067%=      5-min Rain = 0
KDO1 170634Z 21005KT 07/01 A2982 RMK A01 T00650009  RH  067%=      5-min Rain = 0
KDO1 170635Z 22005KT 07/01 A2982 RMK A01 T00650009  RH  067%=      5-min Rain = 0
KDO1 170636Z 22004KT 06/01 A2982 RMK A01 T00640008  RH  068%=      5-min Rain = 0
KDO1 170637Z 22004KT 06/01 A2982 RMK A01 T00630008  RH  068%=      5-min Rain = 0
KDO1 170638Z 23004KT 06/01 A2982 RMK A01 T00620008  RH  068%=      5-min Rain = 0
KDO1 170639Z 23003KT 06/01 A2982 RMK A01 T00620008  RH  068%=      5-min Rain = 0
KDO1 170640Z 23004KT 06/01 A2982 RMK A01 T00620008  RH  068%=      5-min Rain = 0
KDO1 170641Z 24003KT 06/01 A2981 RMK A01 T00620008  RH  068%=      5-min Rain = 0
KDO1 170642Z 23003KT 06/01 A2981 RMK A01 T00620008  RH  068%=      5-min Rain = 0
KDO1 170643Z 22003KT 06/01 A2981 RMK A01 T00620008  RH  068%=      5-min Rain = 0
KDO1 170644Z 22003KT 06/01 A2981 RMK A01 T00620008  RH  068%=      5-min Rain = 0
KDO1 170645Z 23003KT 06/01 A2981 RMK A01 T00620008  RH  069%=      5-min Rain = 0
KDO1 170646Z 23003KT 06/01 A2981 RMK A01 T00620008  RH  069%=      5-min Rain = 0
KDO1 170647Z 24002KT 06/01 A2981 RMK A01 T00610008  RH  069%=      5-min Rain = 0
KDO1 170648Z 24002KT 06/01 A2981 RMK A01 T00620009  RH  069%=      5-min Rain = 0
KDO1 170649Z 25002KT 06/01 A2981 RMK A01 T00610009  RH  069%=      5-min Rain = 0
KDO1 170650Z 25002KT 06/01 A2981 RMK A01 T00610009  RH  069%=      5-min Rain = 0
KDO1 170651Z 25002KT 06/01 A2981 RMK A01 T00620009  RH  069%=      5-min Rain = 0
KDO1 170652Z 24002KT 06/01 A2981 RMK A01 T00610009  RH  069%=      5-min Rain = 0
KDO1 170653Z 25002KT 06/01 A2981 RMK A01 T00610009  RH  069%=      5-min Rain = 0
KDO1 170654Z 24002KT 06/01 A2981 RMK A01 T00620009  RH  069%=      5-min Rain = 0
KDO1 170655Z 24002KT 06/01 A2981 RMK A01 T00620009  RH  069%=      5-min Rain = 0
KDO1 170656Z 23002KT 06/01 A2981 RMK A01 T00620009  RH  069%=      5-min Rain = 0
KDO1 170657Z 23003KT 06/01 A2981 RMK A01 T00630010  RH  069%=      5-min Rain = 0
KDO1 170658Z 23003KT 06/01 A2981 RMK A01 T00630010  RH  069%=      5-min Rain = 0
KDO1 170659Z 22003KT 06/01 A2981 RMK A01 T00630010  RH  069%=      5-min Rain = 0
KDO1 170700Z 21003KT 06/01 A2981 RMK A01 T00630010  RH  069%=      5-min Rain = 0
KDO1 170701Z 21003KT 06/01 A2981 RMK A01 T00640010  RH  068%=      5-min Rain = 0
KDO1 170702Z 21003KT 06/01 A2981 RMK A01 T00640010  RH  068%=      5-min Rain = 0
KDO1 170703Z 21003KT 07/01 A2981 RMK A01 T00650010  RH  068%=      5-min Rain = 0
KDO1 170704Z 20003KT 07/01 A2981 RMK A01 T00650010  RH  068%=      5-min Rain = 0
KDO1 170705Z 20003KT 07/01 A2981 RMK A01 T00650010  RH  068%=      5-min Rain = 0
KDO1 170706Z 20003KT 07/01 A2981 RMK A01 T00650010  RH  068%=      5-min Rain = 0
KDO1 170707Z 21002KT 07/01 A2981 RMK A01 T00650010  RH  068%=      5-min Rain = 0
KDO1 170708Z 20003KT 07/01 A2981 RMK A01 T00650010  RH  068%=      5-min Rain = 0
KDO1 170709Z 19003KT 07/01 A2981 RMK A01 T00650010  RH  068%=      5-min Rain = 0
KDO1 170710Z 19002KT 07/01 A2981 RMK A01 T00650010  RH  068%=      5-min Rain = 0
KDO1 170711Z 20002KT 06/01 A298 RMK A01 T00640009  RH  068%=      5-min Rain = 0
KDO1 170712Z 20003KT 06/01 A298 RMK A01 T00630008  RH  068%=      5-min Rain = 0
KDO1 170713Z 21003KT 06/01 A298 RMK A01 T00630008  RH  068%=      5-min Rain = 0
KDO1 170714Z 22004KT 06/01 A298 RMK A01 T00620009  RH  068%=      5-min Rain = 0
KDO1 170715Z 22004KT 06/01 A298 RMK A01 T00630009  RH  068%=      5-min Rain = 0
KDO1 170716Z 22004KT 06/01 A298 RMK A01 T00620009  RH  068%=      5-min Rain = 0
KDO1 170717Z 22004KT 06/01 A298 RMK A01 T00620009  RH  068%=      5-min Rain = 0
KDO1 170718Z 23004KT 06/01 A298 RMK A01 T00620008  RH  069%=      5-min Rain = 0
KDO1 170719Z 23004KT 06/01 A298 RMK A01 T00620008  RH  069%=      5-min Rain = 0
KDO1 170720Z 22005KT 06/01 A298 RMK A01 T00610008  RH  069%=      5-min Rain = 0
KDO1 170721Z 22005KT 06/01 A298 RMK A01 T00610008  RH  069%=      5-min Rain = 0
KDO1 170722Z 22005KT 06/01 A298 RMK A01 T00610008  RH  069%=      5-min Rain = 0
KDO1 170723Z 22005KT 06/01 A298 RMK A01 T00610008  RH  069%=      5-min Rain = 0
KDO1 170724Z 22005KT 06/01 A298 RMK A01 T00610008  RH  069%=      5-min Rain = 0
KDO1 170725Z 22005KT 06/01 A298 RMK A01 T00610007  RH  069%=      5-min Rain = 0
KDO1 170726Z 21005KT 06/01 A298 RMK A01 T00600007  RH  069%=      5-min Rain = 0
KDO1 170727Z 21005KT 06/01 A298 RMK A01 T00610007  RH  069%=      5-min Rain = 0
KDO1 170728Z 22005KT 06/01 A298 RMK A01 T00600007  RH  069%=      5-min Rain = 0
KDO1 170729Z 22005KT 06/01 A298 RMK A01 T00600007  RH  069%=      5-min Rain = 0
KDO1 170730Z 22005KT 06/01 A298 RMK A01 T00600007  RH  069%=      5-min Rain = 0
KDO1 170731Z 22005KT 06/01 A298 RMK A01 T00590006  RH  069%=      5-min Rain = 0
KDO1 170732Z 23004KT 06/01 A298 RMK A01 T00580006  RH  069%=      5-min Rain = 0
KDO1 170733Z 24004KT 06/01 A298 RMK A01 T00570005  RH  069%=      5-min Rain = 0
KDO1 170734Z 24004KT 06/01 A298 RMK A01 T00570006  RH  070%=      5-min Rain = 0
KDO1 170735Z 25004KT 06/01 A298 RMK A01 T00570006  RH  070%=      5-min Rain = 0
KDO1 170736Z 25004KT 06/01 A298 RMK A01 T00560006  RH  070%=      5-min Rain = 0
KDO1 170737Z 25004KT 06/01 A298 RMK A01 T00560006  RH  070%=      5-min Rain = 0
KDO1 170738Z 25004KT 06/01 A298 RMK A01 T00560006  RH  070%=      5-min Rain = 0
KDO1 170739Z 24004KT 06/01 A298 RMK A01 T00560006  RH  070%=      5-min Rain = 0
KDO1 170740Z 24004KT 06/01 A298 RMK A01 T00560006  RH  070%=      5-min Rain = 0
KDO1 170741Z 25005KT 06/01 A298 RMK A01 T00560006  RH  070%=      5-min Rain = 0
KDO1 170742Z 26005KT 06/01 A298 RMK A01 T00560005  RH  070%=      5-min Rain = 0
KDO1 170743Z 25005KT 06/01 A298 RMK A01 T00570005  RH  069%=      5-min Rain = 0
KDO1 170744Z 25005KT 06/00 A2979 RMK A01 T00560004  RH  069%=      5-min Rain = 0
KDO1 170745Z 25006KT 06/00 A2979 RMK A01 T00560004  RH  069%=      5-min Rain = 0
KDO1 170746Z 26006KT 06/00 A2979 RMK A01 T00560004  RH  069%=      5-min Rain = 0
KDO1 170747Z 25006KT 06/00 A2979 RMK A01 T00560004  RH  069%=      5-min Rain = 0
KDO1 170748Z 25005KT 06/00 A2979 RMK A01 T00570004  RH  069%=      5-min Rain = 0
KDO1 170749Z 25005KT 06/01 A2979 RMK A01 T00580005  RH  069%=      5-min Rain = 0
KDO1 170750Z 25005KT 06/00 A2979 RMK A01 T00580004  RH  068%=      5-min Rain = 0
KDO1 170751Z 26005KT 06/01 A2979 RMK A01 T00590005  RH  068%=      5-min Rain = 0
KDO1 170752Z 26005KT 06/01 A298 RMK A01 T00590005  RH  068%=      5-min Rain = 0
KDO1 170753Z 26005KT 06/01 A298 RMK A01 T00600005  RH  068%=      5-min Rain = 0
KDO1 170754Z 26005KT 06/01 A298 RMK A01 T00600005  RH  068%=      5-min Rain = 0
KDO1 170755Z 26004KT 06/01 A298 RMK A01 T00610005  RH  068%=      5-min Rain = 0
KDO1 170756Z 26004KT 06/01 A298 RMK A01 T00610005  RH  067%=      5-min Rain = 0
KDO1 170757Z 25004KT 06/01 A2979 RMK A01 T00610005  RH  067%=      5-min Rain = 0
KDO1 170758Z 25003KT 06/01 A2979 RMK A01 T00610005  RH  067%=      5-min Rain = 0
KDO1 170759Z 24004KT 06/01 A2979 RMK A01 T00610005  RH  067%=      5-min Rain = 0
KDO1 170800Z 24004KT 06/00 A2979 RMK A01 T00610004  RH  067%=      5-min Rain = 0
KDO1 170801Z 24004KT 06/00 A2979 RMK A01 T00610004  RH  067%=      5-min Rain = 0
KDO1 170802Z 23004KT 06/00 A2979 RMK A01 T00600004  RH  067%=      5-min Rain = 0
KDO1 170803Z 24004KT 06/00 A2979 RMK A01 T00590004  RH  068%=      5-min Rain = 0
KDO1 170804Z 24004KT 06/00 A2979 RMK A01 T00580004  RH  068%=      5-min Rain = 0
KDO1 170805Z 24004KT 06/00 A2979 RMK A01 T00570003  RH  068%=      5-min Rain = 0
KDO1 170806Z 25004KT 06/00 A2979 RMK A01 T00550003  RH  069%=      5-min Rain = 0
KDO1 170807Z 25005KT 05/00 A2979 RMK A01 T00540002  RH  069%=      5-min Rain = 0
KDO1 170808Z 26005KT 05/00 A2979 RMK A01 T00530002  RH  069%=      5-min Rain = 0
KDO1 170809Z 26006KT 05/00 A2979 RMK A01 T005000-0  RH  070%=      5-min Rain = 0
KDO1 170810Z 25005KT 05/M00 A2979 RMK A01 T00491001  RH  070%=      5-min Rain = 0
KDO1 170811Z 25006KT 05/M00 A2979 RMK A01 T00471001  RH  071%=      5-min Rain = 0
KDO1 170812Z 25006KT 05/M00 A2979 RMK A01 T00451002  RH  071%=      5-min Rain = 0
KDO1 170813Z 25006KT 04/M00 A2979 RMK A01 T00441001  RH  072%=      5-min Rain = 0
KDO1 170814Z 25006KT 04/M00 A2978 RMK A01 T00441001  RH  072%=      5-min Rain = 0
KDO1 170815Z 25006KT 04/M00 A2978 RMK A01 T00441001  RH  072%=      5-min Rain = 0
KDO1 170816Z 25006KT 04/M00 A2978 RMK A01 T00441001  RH  073%=      5-min Rain = 0
KDO1 170817Z 26006KT 04/00 A2978 RMK A01 T004400-0  RH  073%=      5-min Rain = 0
KDO1 170818Z 27006KT 05/00 A2978 RMK A01 T004500-0  RH  073%=      5-min Rain = 0
KDO1 170819Z 26005KT 05/00 A2978 RMK A01 T004500-0  RH  072%=      5-min Rain = 0
KDO1 170820Z 26005KT 05/00 A2978 RMK A01 T00460000  RH  072%=      5-min Rain = 0
KDO1 170821Z 26006KT 05/00 A2978 RMK A01 T00470001  RH  072%=      5-min Rain = 0
KDO1 170822Z 26006KT 05/00 A2978 RMK A01 T00480001  RH  072%=      5-min Rain = 0
KDO1 170823Z 25005KT 05/00 A2978 RMK A01 T00500002  RH  071%=      5-min Rain = 0
KDO1 170824Z 25005KT 05/00 A2978 RMK A01 T00510002  RH  071%=      5-min Rain = 0
KDO1 170825Z 25005KT 05/00 A2978 RMK A01 T00530003  RH  070%=      5-min Rain = 0
KDO1 170826Z 26005KT 05/00 A2978 RMK A01 T00540003  RH  070%=      5-min Rain = 0
KDO1 170827Z 25005KT 06/00 A2978 RMK A01 T00550003  RH  069%=      5-min Rain = 0
KDO1 170828Z 25005KT 06/00 A2978 RMK A01 T00560003  RH  069%=      5-min Rain = 0
KDO1 170829Z 25004KT 06/00 A2978 RMK A01 T00560003  RH  068%=      5-min Rain = 0
KDO1 170830Z 25004KT 06/00 A2978 RMK A01 T00570003  RH  068%=      5-min Rain = 0
KDO1 170831Z 25004KT 06/00 A2978 RMK A01 T00580003  RH  068%=      5-min Rain = 0
KDO1 170832Z 26004KT 06/00 A2978 RMK A01 T00580003  RH  068%=      5-min Rain = 0
KDO1 170833Z 26004KT 06/00 A2978 RMK A01 T00580002  RH  068%=      5-min Rain = 0
KDO1 170834Z 25004KT 06/00 A2978 RMK A01 T00580002  RH  067%=      5-min Rain = 0
KDO1 170835Z 25004KT 06/00 A2978 RMK A01 T00580002  RH  067%=      5-min Rain = 0
KDO1 170836Z 25004KT 06/00 A2978 RMK A01 T00580002  RH  067%=      5-min Rain = 0
KDO1 170837Z 25003KT 06/00 A2978 RMK A01 T00580002  RH  067%=      5-min Rain = 0
KDO1 170838Z 24004KT 06/00 A2978 RMK A01 T00580002  RH  067%=      5-min Rain = 0
KDO1 170839Z 25003KT 06/00 A2978 RMK A01 T00570001  RH  067%=      5-min Rain = 0
KDO1 170840Z 24003KT 06/00 A2978 RMK A01 T00570000  RH  067%=      5-min Rain = 0
KDO1 170841Z 24002KT 06/00 A2978 RMK A01 T00560000  RH  067%=      5-min Rain = 0
KDO1 170842Z 23002KT 06/00 A2978 RMK A01 T005500-0  RH  067%=      5-min Rain = 0
KDO1 170843Z 23002KT 05/M00 A2978 RMK A01 T00541001  RH  068%=      5-min Rain = 0
KDO1 170844Z 22002KT 05/M00 A2978 RMK A01 T00521002  RH  068%=      5-min Rain = 0
KDO1 170845Z 22002KT 05/M01 A2978 RMK A01 T00491006  RH  068%=      5-min Rain = 0
KDO1 170846Z 23002KT 04/M01 A2978 RMK A01 T00441009  RH  068%=      5-min Rain = 0
KDO1 170847Z 24003KT 04/M01 A2978 RMK A01 T00411010  RH  069%=      5-min Rain = 0
KDO1 170848Z 23003KT 04/M01 A2978 RMK A01 T00391010  RH  070%=      5-min Rain = 0
KDO1 170849Z 24002KT 04/M01 A2978 RMK A01 T00371010  RH  071%=      5-min Rain = 0
KDO1 170850Z 23002KT 04/M01 A2977 RMK A01 T00371010  RH  071%=      5-min Rain = 0
KDO1 170851Z 23002KT 04/M01 A2977 RMK A01 T00361010  RH  072%=      5-min Rain = 0
KDO1 170852Z 23002KT 04/M01 A2977 RMK A01 T00361010  RH  072%=      5-min Rain = 0
KDO1 170853Z 23002KT 04/M01 A2977 RMK A01 T00351010  RH  072%=      5-min Rain = 0
KDO1 170854Z 23002KT 04/M01 A2977 RMK A01 T00351010  RH  073%=      5-min Rain = 0
KDO1 170855Z 23003KT 03/M01 A2977 RMK A01 T00341009  RH  073%=      5-min Rain = 0
KDO1 170856Z 23003KT 03/M01 A2977 RMK A01 T00341009  RH  073%=      5-min Rain = 0
KDO1 170857Z 23002KT 04/M01 A2977 RMK A01 T00351008  RH  073%=      5-min Rain = 0
KDO1 170858Z 24003KT 04/M01 A2977 RMK A01 T00351008  RH  073%=      5-min Rain = 0
KDO1 170859Z 24003KT 04/M01 A2977 RMK A01 T00351008  RH  073%=      5-min Rain = 0
KDO1 170900Z 24002KT 04/M01 A2977 RMK A01 T00351008  RH  073%=      5-min Rain = 0
KDO1 170901Z 24002KT 04/M01 A2977 RMK A01 T00361007  RH  073%=      5-min Rain = 0
KDO1 170902Z 24003KT 04/M01 A2977 RMK A01 T00351008  RH  073%=      5-min Rain = 0
KDO1 170903Z 24003KT 04/M01 A2977 RMK A01 T00351007  RH  074%=      5-min Rain = 0
KDO1 170904Z 24003KT 04/M01 A2977 RMK A01 T00351007  RH  074%=      5-min Rain = 0
KDO1 170905Z 24003KT 04/M01 A2977 RMK A01 T00351007  RH  074%=      5-min Rain = 0
KDO1 170906Z 23003KT 04/M01 A2977 RMK A01 T00361006  RH  074%=      5-min Rain = 0
KDO1 170907Z 23003KT 04/M01 A2977 RMK A01 T00361005  RH  074%=      5-min Rain = 0
KDO1 170908Z 23003KT 04/M01 A2977 RMK A01 T00371005  RH  074%=      5-min Rain = 0
KDO1 170909Z 23003KT 04/M00 A2977 RMK A01 T00381004  RH  074%=      5-min Rain = 0
KDO1 170910Z 23003KT 04/M00 A2977 RMK A01 T00381004  RH  074%=      5-min Rain = 0
KDO1 170911Z 23003KT 04/M00 A2977 RMK A01 T00391004  RH  074%=      5-min Rain = 0
KDO1 170912Z 23003KT 04/M00 A2977 RMK A01 T00391003  RH  074%=      5-min Rain = 0
KDO1 170913Z 23004KT 04/M00 A2977 RMK A01 T00391004  RH  074%=      5-min Rain = 0
KDO1 170914Z 23003KT 04/M00 A2977 RMK A01 T00391003  RH  074%=      5-min Rain = 0
KDO1 170915Z 23003KT 04/M00 A2976 RMK A01 T00391003  RH  074%=      5-min Rain = 0
KDO1 170916Z 22003KT 04/M00 A2976 RMK A01 T00391003  RH  074%=      5-min Rain = 0
KDO1 170917Z 22003KT 04/M00 A2976 RMK A01 T00391003  RH  074%=      5-min Rain = 0
KDO1 170918Z 22003KT 04/M00 A2976 RMK A01 T00391003  RH  074%=      5-min Rain = 0
KDO1 170919Z 23004KT 04/M00 A2976 RMK A01 T00391003  RH  074%=      5-min Rain = 0
KDO1 170920Z 23004KT 04/M00 A2976 RMK A01 T00391003  RH  074%=      5-min Rain = 0
KDO1 170921Z 23004KT 04/M00 A2976 RMK A01 T00391003  RH  074%=      5-min Rain = 0
KDO1 170922Z 24004KT 04/M00 A2976 RMK A01 T00391003  RH  074%=      5-min Rain = 0
KDO1 170923Z 24003KT 04/M00 A2976 RMK A01 T00391003  RH  074%=      5-min Rain = 0
KDO1 170924Z 24004KT 04/M00 A2976 RMK A01 T00391003  RH  074%=      5-min Rain = 0
KDO1 170925Z 24004KT 04/M00 A2976 RMK A01 T00391003  RH  074%=      5-min Rain = 0
KDO1 170926Z 24004KT 04/M00 A2976 RMK A01 T00391003  RH  074%=      5-min Rain = 0
KDO1 170927Z 24004KT 04/M00 A2976 RMK A01 T00401003  RH  073%=      5-min Rain = 0
KDO1 170928Z 24004KT 04/M00 A2975 RMK A01 T00401003  RH  073%=      5-min Rain = 0
KDO1 170929Z 23004KT 04/M00 A2975 RMK A01 T00411003  RH  073%=      5-min Rain = 0
KDO1 170930Z 23004KT 04/M00 A2975 RMK A01 T00411003  RH  073%=      5-min Rain = 0
KDO1 170931Z 23004KT 04/M00 A2975 RMK A01 T00421003  RH  072%=      5-min Rain = 0
KDO1 170932Z 23004KT 04/M00 A2975 RMK A01 T00431003  RH  072%=      5-min Rain = 0
KDO1 170933Z 22004KT 04/M00 A2975 RMK A01 T00431003  RH  072%=      5-min Rain = 0
KDO1 170934Z 22004KT 04/M00 A2975 RMK A01 T00441003  RH  072%=      5-min Rain = 0
KDO1 170935Z 21003KT 04/M00 A2975 RMK A01 T00441003  RH  072%=      5-min Rain = 0
KDO1 170936Z 20002KT 04/M00 A2975 RMK A01 T00431003  RH  072%=      5-min Rain = 0
KDO1 170937Z 19002KT 04/M01 A2975 RMK A01 T00421005  RH  071%=      5-min Rain = 0
KDO1 170938Z 18002KT 04/M01 A2975 RMK A01 T00381010  RH  071%=      5-min Rain = 0
KDO1 170939Z 18002KT 03/M01 A2975 RMK A01 T00331012  RH  072%=      5-min Rain = 0
KDO1 170940Z 18002KT 03/M02 A2975 RMK A01 T00281015  RH  073%=      5-min Rain = 0
KDO1 170941Z 18003KT 03/M02 A2975 RMK A01 T00251017  RH  074%=      5-min Rain = 0
KDO1 170942Z 18003KT 02/M02 A2975 RMK A01 T00221018  RH  075%=      5-min Rain = 0
KDO1 170943Z 18003KT 02/M02 A2975 RMK A01 T00201018  RH  076%=      5-min Rain = 0
KDO1 170944Z 19003KT 02/M02 A2975 RMK A01 T00191017  RH  077%=      5-min Rain = 0
KDO1 170945Z 19003KT 02/M02 A2975 RMK A01 T00191015  RH  078%=      5-min Rain = 0
KDO1 170946Z 19002KT 02/M01 A2975 RMK A01 T00211014  RH  078%=      5-min Rain = 0
KDO1 170947Z 19003KT 02/M01 A2975 RMK A01 T00221013  RH  078%=      5-min Rain = 0
KDO1 170948Z 20002KT 02/M01 A2975 RMK A01 T00231012  RH  078%=      5-min Rain = 0
KDO1 170949Z 20002KT 02/M01 A2975 RMK A01 T00241011  RH  078%=      5-min Rain = 0
KDO1 170950Z 20002KT 03/M01 A2975 RMK A01 T00251011  RH  078%=      5-min Rain = 0
KDO1 170951Z 20002KT 03/M01 A2975 RMK A01 T00251010  RH  077%=      5-min Rain = 0
KDO1 170952Z 20003KT 03/M01 A2975 RMK A01 T00271009  RH  077%=      5-min Rain = 0
KDO1 170953Z 20003KT 03/M01 A2975 RMK A01 T00281008  RH  077%=      5-min Rain = 0
KDO1 170954Z 20003KT 03/M01 A2975 RMK A01 T00301007  RH  077%=      5-min Rain = 0
KDO1 170955Z 20003KT 03/M01 A2975 RMK A01 T00321005  RH  077%=      5-min Rain = 0
KDO1 170956Z 20003KT 03/M01 A2975 RMK A01 T00331005  RH  076%=      5-min Rain = 0
KDO1 170957Z 20003KT 03/M01 A2975 RMK A01 T00341005  RH  076%=      5-min Rain = 0
KDO1 170958Z 20003KT 04/M01 A2975 RMK A01 T00351005  RH  075%=      5-min Rain = 0
KDO1 170959Z 19003KT 04/M01 A2975 RMK A01 T00361005  RH  075%=      5-min Rain = 0
KDO1 171000Z 19003KT 04/M01 A2975 RMK A01 T00361005  RH  075%=      5-min Rain = 0
KDO1 171001Z 19004KT 04/M01 A2975 RMK A01 T00361005  RH  075%=      5-min Rain = 0
KDO1 171002Z 19004KT 04/M01 A2975 RMK A01 T00361005  RH  074%=      5-min Rain = 0
KDO1 171003Z 19005KT 04/M01 A2975 RMK A01 T00371005  RH  074%=      5-min Rain = 0
KDO1 171004Z 19005KT 04/M01 A2975 RMK A01 T00371005  RH  074%=      5-min Rain = 0
KDO1 171005Z 19005KT 04/M00 A2975 RMK A01 T00381004  RH  074%=      5-min Rain = 0
KDO1 171006Z 19005KT 04/M00 A2975 RMK A01 T00381004  RH  074%=      5-min Rain = 0
KDO1 171007Z 19005KT 04/M00 A2974 RMK A01 T00381004  RH  074%=      5-min Rain = 0
KDO1 171008Z 19006KT 04/M00 A2974 RMK A01 T00381004  RH  074%=      5-min Rain = 0
KDO1 171009Z 19005KT 04/M00 A2974 RMK A01 T00381004  RH  074%=      5-min Rain = 0
KDO1 171010Z 20005KT 04/M00 A2974 RMK A01 T00381004  RH  074%=      5-min Rain = 0
KDO1 171011Z 20005KT 04/M01 A2974 RMK A01 T00371005  RH  074%=      5-min Rain = 0
KDO1 171012Z 20004KT 04/M01 A2974 RMK A01 T00371006  RH  074%=      5-min Rain = 0
KDO1 171013Z 20004KT 04/M01 A2974 RMK A01 T00361006  RH  074%=      5-min Rain = 0
KDO1 171014Z 19004KT 04/M01 A2974 RMK A01 T00351006  RH  074%=      5-min Rain = 0
KDO1 171015Z 20004KT 04/M01 A2974 RMK A01 T00351006  RH  075%=      5-min Rain = 0
KDO1 171016Z 20004KT 04/M01 A2974 RMK A01 T00351006  RH  075%=      5-min Rain = 0
KDO1 171017Z 19004KT 04/M01 A2974 RMK A01 T00351006  RH  075%=      5-min Rain = 0
KDO1 171018Z 19004KT 04/M01 A2974 RMK A01 T00351005  RH  075%=      5-min Rain = 0
KDO1 171019Z 18004KT 04/M00 A2974 RMK A01 T00361004  RH  075%=      5-min Rain = 0
KDO1 171020Z 18004KT 04/M00 A2974 RMK A01 T00361004  RH  075%=      5-min Rain = 0
KDO1 171021Z 18004KT 04/M00 A2974 RMK A01 T00371004  RH  075%=      5-min Rain = 0
KDO1 171022Z 18005KT 04/M00 A2974 RMK A01 T00371004  RH  075%=      5-min Rain = 0
KDO1 171023Z 18005KT 04/M00 A2974 RMK A01 T00371004  RH  075%=      5-min Rain = 0
KDO1 171024Z 18004KT 04/M00 A2974 RMK A01 T00371004  RH  075%=      5-min Rain = 0
KDO1 171025Z 17005KT 04/M00 A2974 RMK A01 T00371004  RH  075%=      5-min Rain = 0
KDO1 171026Z 17005KT 04/M00 A2974 RMK A01 T00371004  RH  075%=      5-min Rain = 0
KDO1 171027Z 17006KT 04/M00 A2974 RMK A01 T00371004  RH  075%=      5-min Rain = 0
KDO1 171028Z 17006KT 04/M00 A2974 RMK A01 T00371004  RH  075%=      5-min Rain = 0
KDO1 171029Z 17005KT 04/M00 A2974 RMK A01 T00371004  RH  075%=      5-min Rain = 0
KDO1 171030Z 17005KT 04/M00 A2974 RMK A01 T00361004  RH  075%=      5-min Rain = 0
KDO1 171031Z 17005KT 04/M00 A2974 RMK A01 T00361004  RH  075%=      5-min Rain = 0
KDO1 171032Z 17005KT 04/M00 A2974 RMK A01 T00361004  RH  075%=      5-min Rain = 0
KDO1 171033Z 17005KT 04/M00 A2974 RMK A01 T00361003  RH  075%=      5-min Rain = 0
KDO1 171034Z 16005KT 04/M00 A2974 RMK A01 T00361004  RH  075%=      5-min Rain = 0
KDO1 171035Z 17005KT 04/M00 A2974 RMK A01 T00351004  RH  075%=      5-min Rain = 0
KDO1 171036Z 17005KT 04/M00 A2974 RMK A01 T00351004  RH  076%=      5-min Rain = 0
KDO1 171037Z 17006KT 04/M00 A2974 RMK A01 T00351004  RH  076%=      5-min Rain = 0
KDO1 171038Z 17005KT 04/M00 A2974 RMK A01 T00351004  RH  076%=      5-min Rain = 0
KDO1 171039Z 17006KT 03/M00 A2974 RMK A01 T00341004  RH  076%=      5-min Rain = 0
KDO1 171040Z 17005KT 04/M00 A2974 RMK A01 T00351003  RH  076%=      5-min Rain = 0
KDO1 171041Z 17006KT 04/M00 A2974 RMK A01 T00351003  RH  076%=      5-min Rain = 0
KDO1 171042Z 17006KT 04/M00 A2974 RMK A01 T00351003  RH  076%=      5-min Rain = 0
KDO1 171043Z 17006KT 04/M00 A2974 RMK A01 T00351003  RH  076%=      5-min Rain = 0
KDO1 171044Z 17006KT 04/M00 A2974 RMK A01 T00361002  RH  076%=      5-min Rain = 0
KDO1 171045Z 17006KT 04/M00 A2974 RMK A01 T00371001  RH  076%=      5-min Rain = 0
KDO1 171046Z 17005KT 04/M00 A2974 RMK A01 T00371001  RH  076%=      5-min Rain = 0
KDO1 171047Z 16005KT 04/M00 A2974 RMK A01 T00381001  RH  076%=      5-min Rain = 0
KDO1 171048Z 17004KT 04/M00 A2974 RMK A01 T00381001  RH  076%=      5-min Rain = 0
KDO1 171049Z 17004KT 04/M00 A2974 RMK A01 T00381001  RH  076%=      5-min Rain = 0
KDO1 171050Z 17005KT 04/M00 A2974 RMK A01 T00381001  RH  076%=      5-min Rain = 0
KDO1 171051Z 17004KT 04/M00 A2974 RMK A01 T00391001  RH  076%=      5-min Rain = 0
KDO1 171052Z 17004KT 04/M00 A2974 RMK A01 T00391001  RH  075%=      5-min Rain = 0
KDO1 171053Z 17004KT 04/M00 A2974 RMK A01 T00391001  RH  075%=      5-min Rain = 0
KDO1 171054Z 18004KT 04/M00 A2974 RMK A01 T00381001  RH  075%=      5-min Rain = 0
KDO1 171055Z 18003KT 04/M00 A2974 RMK A01 T00391001  RH  075%=      5-min Rain = 0
KDO1 171056Z 18004KT 04/M00 A2974 RMK A01 T00391001  RH  075%=      5-min Rain = 0
KDO1 171057Z 17003KT 04/M00 A2974 RMK A01 T00381001  RH  075%=      5-min Rain = 0
KDO1 171058Z 18003KT 04/M00 A2974 RMK A01 T00381001  RH  075%=      5-min Rain = 0
KDO1 171059Z 18003KT 04/M00 A2974 RMK A01 T00381002  RH  075%=      5-min Rain = 0
KDO1 171100Z 18002KT 04/M00 A2974 RMK A01 T00381002  RH  075%=      5-min Rain = 0
KDO1 171101Z 18003KT 04/M00 A2974 RMK A01 T00381002  RH  075%=      5-min Rain = 0
KDO1 171102Z 18003KT 04/M00 A2974 RMK A01 T00381002  RH  075%=      5-min Rain = 0
KDO1 171103Z 18002KT 04/M00 A2974 RMK A01 T00381001  RH  075%=      5-min Rain = 0
KDO1 171104Z 19002KT 04/M00 A2974 RMK A01 T00381001  RH  075%=      5-min Rain = 0
KDO1 171105Z 18002KT 04/M00 A2974 RMK A01 T00381001  RH  075%=      5-min Rain = 0
KDO1 171106Z 18002KT 04/M00 A2974 RMK A01 T00391001  RH  075%=      5-min Rain = 0
KDO1 171107Z 18003KT 04/M00 A2974 RMK A01 T00391001  RH  075%=      5-min Rain = 0
KDO1 171108Z 18002KT 04/00 A2974 RMK A01 T003900-0  RH  075%=      5-min Rain = 0
KDO1 171109Z 18002KT 04/00 A2974 RMK A01 T004000-0  RH  075%=      5-min Rain = 0
KDO1 171110Z 18002KT 04/00 A2974 RMK A01 T00400000  RH  075%=      5-min Rain = 0
KDO1 171111Z 18002KT 04/00 A2973 RMK A01 T00400000  RH  075%=      5-min Rain = 0
KDO1 171112Z 18003KT 04/00 A2973 RMK A01 T00410000  RH  075%=      5-min Rain = 0
KDO1 171113Z 18003KT 04/00 A2973 RMK A01 T00410000  RH  075%=      5-min Rain = 0
KDO1 171114Z 18003KT 04/00 A2973 RMK A01 T00410001  RH  075%=      5-min Rain = 0
KDO1 171115Z 18003KT 04/00 A2973 RMK A01 T00410001  RH  075%=      5-min Rain = 0
KDO1 171116Z 19003KT 04/00 A2973 RMK A01 T00420001  RH  075%=      5-min Rain = 0
KDO1 171117Z 19003KT 04/00 A2973 RMK A01 T00420001  RH  075%=      5-min Rain = 0
KDO1 171118Z 20003KT 04/00 A2973 RMK A01 T00420001  RH  075%=      5-min Rain = 0
KDO1 171119Z 21003KT 04/00 A2973 RMK A01 T00420001  RH  075%=      5-min Rain = 0
KDO1 171120Z 22003KT 04/00 A2973 RMK A01 T00420001  RH  075%=      5-min Rain = 0
KDO1 171121Z 23003KT 04/00 A2973 RMK A01 T00410000  RH  075%=      5-min Rain = 0
KDO1 171122Z 24004KT 04/M00 A2973 RMK A01 T00401001  RH  075%=      5-min Rain = 0
KDO1 171123Z 24004KT 04/M00 A2973 RMK A01 T00391002  RH  075%=      5-min Rain = 0
KDO1 171124Z 24004KT 04/M00 A2973 RMK A01 T00381002  RH  075%=      5-min Rain = 0
KDO1 171125Z 24005KT 04/M00 A2973 RMK A01 T00371003  RH  075%=      5-min Rain = 0
KDO1 171126Z 24005KT 04/M00 A2973 RMK A01 T00351003  RH  076%=      5-min Rain = 0
KDO1 171127Z 24006KT 03/M00 A2973 RMK A01 T00341004  RH  076%=      5-min Rain = 0
KDO1 171128Z 24006KT 03/M01 A2973 RMK A01 T00321005  RH  077%=      5-min Rain = 0
KDO1 171129Z 24006KT 03/M00 A2973 RMK A01 T00321004  RH  077%=      5-min Rain = 0
KDO1 171130Z 24006KT 03/M00 A2973 RMK A01 T00311004  RH  078%=      5-min Rain = 0
KDO1 171131Z 24006KT 03/M00 A2973 RMK A01 T00321004  RH  078%=      5-min Rain = 0
KDO1 171132Z 24006KT 03/M00 A2973 RMK A01 T00321003  RH  078%=      5-min Rain = 0
KDO1 171133Z 24006KT 03/M00 A2973 RMK A01 T00321004  RH  078%=      5-min Rain = 0
KDO1 171134Z 24007KT 03/M00 A2973 RMK A01 T00321003  RH  078%=      5-min Rain = 0
KDO1 171135Z 24007KT 03/M00 A2973 RMK A01 T00331002  RH  078%=      5-min Rain = 0
KDO1 171136Z 24007KT 03/M00 A2973 RMK A01 T00331001  RH  078%=      5-min Rain = 0
KDO1 171137Z 24007KT 03/00 A2973 RMK A01 T003400-0  RH  078%=      5-min Rain = 0
KDO1 171138Z 24007KT 04/00 A2973 RMK A01 T00350000  RH  078%=      5-min Rain = 0
KDO1 171139Z 24007KT 04/00 A2973 RMK A01 T00360001  RH  078%=      5-min Rain = 0
KDO1 171140Z 23007KT 04/00 A2973 RMK A01 T00360001  RH  078%=      5-min Rain = 0
KDO1 171141Z 23007KT 04/00 A2973 RMK A01 T00370001  RH  078%=      5-min Rain = 0
KDO1 171142Z 23006KT 04/00 A2973 RMK A01 T00370001  RH  078%=      5-min Rain = 0
KDO1 171143Z 23006KT 04/00 A2973 RMK A01 T00370001  RH  077%=      5-min Rain = 0
KDO1 171144Z 23005KT 04/00 A2973 RMK A01 T00370001  RH  077%=      5-min Rain = 0
KDO1 171145Z 23004KT 04/M00 A2973 RMK A01 T00351002  RH  077%=      5-min Rain = 0
KDO1 171146Z 23003KT 03/M00 A2973 RMK A01 T00331004  RH  077%=      5-min Rain = 0
KDO1 171147Z 23002KT 03/M01 A2973 RMK A01 T00311006  RH  077%=      5-min Rain = 0
KDO1 171148Z 22002KT 03/M01 A2973 RMK A01 T00291007  RH  077%=      5-min Rain = 0
KDO1 171149Z 18003KT 03/M01 A2973 RMK A01 T00271008  RH  078%=      5-min Rain = 0
KDO1 171150Z 16003KT 03/M01 A2973 RMK A01 T00251009  RH  078%=      5-min Rain = 0
KDO1 171151Z 14004KT 02/M01 A2973 RMK A01 T00231012  RH  078%=      5-min Rain = 0
KDO1 171152Z 14004KT 02/M02 A2973 RMK A01 T00201015  RH  078%=      5-min Rain = 0
KDO1 171153Z 13005KT 02/M02 A2973 RMK A01 T00171017  RH  078%=      5-min Rain = 0
KDO1 171154Z 14005KT 02/M02 A2973 RMK A01 T00151018  RH  079%=      5-min Rain = 0
KDO1 171155Z 15005KT 01/M02 A2973 RMK A01 T00131019  RH  079%=      5-min Rain = 0
KDO1 171156Z 17004KT 01/M02 A2973 RMK A01 T00121019  RH  080%=      5-min Rain = 0
KDO1 171157Z 18004KT 01/M02 A2973 RMK A01 T00111018  RH  081%=      5-min Rain = 0
KDO1 171158Z 18004KT 01/M02 A2973 RMK A01 T00121016  RH  081%=      5-min Rain = 0
KDO1 171159Z 19004KT 01/M01 A2973 RMK A01 T00141014  RH  082%=      5-min Rain = 0
KDO1 171200Z 20003KT 02/M01 A2973 RMK A01 T00161011  RH  082%=      5-min Rain = 0
KDO1 171201Z 20003KT 02/M01 A2973 RMK A01 T00181011  RH  081%=      5-min Rain = 0
KDO1 171202Z 19003KT 02/M01 A2973 RMK A01 T00191011  RH  081%=      5-min Rain = 0
KDO1 171203Z 18003KT 02/M01 A2973 RMK A01 T00191010  RH  081%=      5-min Rain = 0
KDO1 171204Z 18003KT 02/M01 A2973 RMK A01 T00191010  RH  081%=      5-min Rain = 0
KDO1 171205Z 17003KT 02/M01 A2973 RMK A01 T00191010  RH  081%=      5-min Rain = 0
KDO1 171206Z 16002KT 02/M01 A2973 RMK A01 T00201010  RH  081%=      5-min Rain = 0
KDO1 171207Z 17001KT 02/M01 A2973 RMK A01 T00201010  RH  080%=      5-min Rain = 0
KDO1 171208Z 21002KT 02/M01 A2973 RMK A01 T00201010  RH  081%=      5-min Rain = 0
KDO1 171209Z 22002KT 02/M01 A2973 RMK A01 T00201010  RH  081%=      5-min Rain = 0
KDO1 171210Z 23002KT 02/M01 A2973 RMK A01 T00211008  RH  081%=      5-min Rain = 0
KDO1 171211Z 23003KT 02/M01 A2973 RMK A01 T00221007  RH  081%=      5-min Rain = 0
KDO1 171212Z 23002KT 02/M01 A2973 RMK A01 T00231006  RH  081%=      5-min Rain = 0
KDO1 171213Z 22002KT 02/M01 A2973 RMK A01 T00231006  RH  081%=      5-min Rain = 0
KDO1 171214Z 23002KT 02/M01 A2973 RMK A01 T00241007  RH  081%=      5-min Rain = 0
KDO1 171215Z 23002KT 02/M01 A2973 RMK A01 T00231007  RH  080%=      5-min Rain = 0
KDO1 171216Z 23002KT 02/M01 A2973 RMK A01 T00241007  RH  080%=      5-min Rain = 0
KDO1 171217Z 22002KT 02/M01 A2973 RMK A01 T00241007  RH  081%=      5-min Rain = 0
KDO1 171218Z 20002KT 02/M01 A2973 RMK A01 T00241007  RH  080%=      5-min Rain = 0
KDO1 171219Z 19002KT 02/M01 A2973 RMK A01 T00241007  RH  080%=      5-min Rain = 0
KDO1 171220Z 20002KT 02/M01 A2973 RMK A01 T00231007  RH  081%=      5-min Rain = 0
KDO1 171221Z 22002KT 02/M01 A2973 RMK A01 T00231006  RH  081%=      5-min Rain = 0
KDO1 171222Z 24002KT 02/M01 A2973 RMK A01 T00241006  RH  081%=      5-min Rain = 0
KDO1 171223Z 24002KT 02/M01 A2973 RMK A01 T00241005  RH  081%=      5-min Rain = 0
KDO1 171224Z 22001KT 03/M01 A2973 RMK A01 T00251005  RH  081%=      5-min Rain = 0
KDO1 171225Z 21001KT 03/M01 A2973 RMK A01 T00251005  RH  081%=      5-min Rain = 0
KDO1 171226Z 18001KT 03/M01 A2973 RMK A01 T00251005  RH  081%=      5-min Rain = 0
KDO1 171227Z 15002KT 03/M00 A2973 RMK A01 T00261004  RH  081%=      5-min Rain = 0
KDO1 171228Z 14002KT 03/M01 A2973 RMK A01 T00261005  RH  080%=      5-min Rain = 0
KDO1 171229Z 15002KT 02/M01 A2973 RMK A01 T00241008  RH  080%=      5-min Rain = 0
KDO1 171230Z 19001KT 02/M01 A2973 RMK A01 T00221008  RH  080%=      5-min Rain = 0
KDO1 171231Z 22002KT 02/M01 A2973 RMK A01 T00211008  RH  081%=      5-min Rain = 0
KDO1 171232Z 23002KT 02/M01 A2973 RMK A01 T00211007  RH  081%=      5-min Rain = 0
KDO1 171233Z 22002KT 02/M01 A2973 RMK A01 T00211007  RH  082%=      5-min Rain = 0
KDO1 171234Z 19002KT 02/M01 A2973 RMK A01 T00221007  RH  082%=      5-min Rain = 0
KDO1 171235Z 16002KT 02/M01 A2973 RMK A01 T00221006  RH  082%=      5-min Rain = 0
KDO1 171236Z 12003KT 02/M01 A2973 RMK A01 T00241005  RH  082%=      5-min Rain = 0
KDO1 171237Z 12004KT 02/M01 A2973 RMK A01 T00231007  RH  080%=      5-min Rain = 0
KDO1 171238Z 12004KT 02/M01 A2973 RMK A01 T00201011  RH  080%=      5-min Rain = 0
KDO1 171239Z 12002KT 02/M01 A2973 RMK A01 T00181012  RH  081%=      5-min Rain = 0
KDO1 171240Z 13002KT 02/M01 A2973 RMK A01 T00161013  RH  081%=      5-min Rain = 0
KDO1 171241Z 15002KT 02/M01 A2973 RMK A01 T00151013  RH  082%=      5-min Rain = 0
KDO1 171242Z 14002KT 01/M01 A2973 RMK A01 T00141012  RH  082%=      5-min Rain = 0
KDO1 171243Z 14002KT 02/M01 A2973 RMK A01 T00151012  RH  083%=      5-min Rain = 0
KDO1 171244Z 14002KT 02/M01 A2973 RMK A01 T00151011  RH  083%=      5-min Rain = 0
KDO1 171245Z 14002KT 02/M01 A2973 RMK A01 T00171009  RH  083%=      5-min Rain = 0
KDO1 171246Z 15002KT 02/M01 A2973 RMK A01 T00181009  RH  083%=      5-min Rain = 0
KDO1 171247Z 14002KT 02/M01 A2973 RMK A01 T00191007  RH  083%=      5-min Rain = 0
KDO1 171248Z 14002KT 02/M01 A2973 RMK A01 T00201006  RH  083%=      5-min Rain = 0
KDO1 171249Z 13002KT 02/M01 A2973 RMK A01 T00211006  RH  082%=      5-min Rain = 0
KDO1 171250Z 17001KT 02/M01 A2973 RMK A01 T00211006  RH  082%=      5-min Rain = 0
KDO1 171251Z 22002KT 02/M01 A2973 RMK A01 T00221005  RH  082%=      5-min Rain = 0
KDO1 171252Z 24002KT 02/M00 A2973 RMK A01 T00231004  RH  082%=      5-min Rain = 0
KDO1 171253Z 25003KT 02/M01 A2973 RMK A01 T00231005  RH  082%=      5-min Rain = 0
KDO1 171254Z 25003KT 02/M01 A2973 RMK A01 T00231006  RH  081%=      5-min Rain = 0
KDO1 171255Z 25003KT 02/M01 A2973 RMK A01 T00221007  RH  081%=      5-min Rain = 0
KDO1 171256Z 24003KT 02/M01 A2973 RMK A01 T00211008  RH  081%=      5-min Rain = 0
KDO1 171257Z 22003KT 02/M01 A2973 RMK A01 T00201008  RH  082%=      5-min Rain = 0
KDO1 171258Z 21003KT 02/M01 A2973 RMK A01 T00191008  RH  082%=      5-min Rain = 0
KDO1 171259Z 20003KT 02/M01 A2973 RMK A01 T00191007  RH  083%=      5-min Rain = 0
KDO1 171300Z 19003KT 02/M01 A2973 RMK A01 T00201006  RH  083%=      5-min Rain = 0
KDO1 171301Z 18003KT 02/M00 A2973 RMK A01 T00211004  RH  084%=      5-min Rain = 0
KDO1 171302Z 18002KT 02/M00 A2973 RMK A01 T00231003  RH  083%=      5-min Rain = 0
KDO1 171303Z 17001KT 02/M01 A2973 RMK A01 T00221006  RH  082%=      5-min Rain = 0
KDO1 171304Z 17001KT 02/M01 A2973 RMK A01 T00211007  RH  082%=      5-min Rain = 0
KDO1 171305Z 18002KT 02/M01 A2973 RMK A01 T00191008  RH  082%=      5-min Rain = 0
KDO1 171306Z 19001KT 02/M01 A2973 RMK A01 T00191007  RH  083%=      5-min Rain = 0
KDO1 171307Z 19001KT 02/M01 A2973 RMK A01 T00191006  RH  083%=      5-min Rain = 0
KDO1 171308Z 18001KT 02/M01 A2973 RMK A01 T00201005  RH  083%=      5-min Rain = 0
KDO1 171309Z 17001KT 02/M01 A2973 RMK A01 T00211005  RH  083%=      5-min Rain = 0
KDO1 171310Z 14000KT 02/M00 A2973 RMK A01 T00221004  RH  083%=      5-min Rain = 0
KDO1 171311Z 00000KT 02/M00 A2973 RMK A01 T00231002  RH  083%=      5-min Rain = 0
KDO1 171312Z 19000KT 02/M00 A2973 RMK A01 T00241002  RH  083%=      5-min Rain = 0
KDO1 171313Z 22001KT 02/M00 A2973 RMK A01 T00241002  RH  083%=      5-min Rain = 0
KDO1 171314Z 22001KT 03/M00 A2973 RMK A01 T00251002  RH  083%=      5-min Rain = 0
KDO1 171315Z 23002KT 03/M00 A2973 RMK A01 T00251001  RH  083%=      5-min Rain = 0
KDO1 171316Z 22002KT 03/M00 A2973 RMK A01 T00261001  RH  082%=      5-min Rain = 0
KDO1 171317Z 23002KT 03/M00 A2973 RMK A01 T00251004  RH  081%=      5-min Rain = 0
KDO1 171318Z 22002KT 02/M01 A2973 RMK A01 T00231006  RH  081%=      5-min Rain = 0
KDO1 171319Z 23003KT 02/M01 A2973 RMK A01 T00201008  RH  081%=      5-min Rain = 0
KDO1 171320Z 23003KT 02/M01 A2973 RMK A01 T00191009  RH  082%=      5-min Rain = 0
KDO1 171321Z 23003KT 02/M01 A2973 RMK A01 T00171011  RH  082%=      5-min Rain = 0
KDO1 171322Z 22003KT 02/M01 A2973 RMK A01 T00161010  RH  083%=      5-min Rain = 0
KDO1 171323Z 22003KT 02/M01 A2973 RMK A01 T00161010  RH  083%=      5-min Rain = 0
KDO1 171324Z 21003KT 02/M01 A2973 RMK A01 T00161008  RH  084%=      5-min Rain = 0
KDO1 171325Z 21003KT 02/M01 A2973 RMK A01 T00171006  RH  084%=      5-min Rain = 0
KDO1 171326Z 20003KT 02/M01 A2973 RMK A01 T00191005  RH  084%=      5-min Rain = 0
KDO1 171327Z 19003KT 02/M00 A2973 RMK A01 T00201004  RH  084%=      5-min Rain = 0
KDO1 171328Z 18003KT 02/M00 A2973 RMK A01 T00211002  RH  084%=      5-min Rain = 0
KDO1 171329Z 18003KT 02/M00 A2973 RMK A01 T00231001  RH  084%=      5-min Rain = 0
KDO1 171330Z 18003KT 03/00 A2973 RMK A01 T00250001  RH  084%=      5-min Rain = 0
KDO1 171331Z 18003KT 03/00 A2973 RMK A01 T00270002  RH  083%=      5-min Rain = 0
KDO1 171332Z 17003KT 03/00 A2973 RMK A01 T00280001  RH  083%=      5-min Rain = 0
KDO1 171333Z 17003KT 03/M00 A2973 RMK A01 T00271001  RH  081%=      5-min Rain = 0
KDO1 171334Z 17003KT 02/M01 A2973 RMK A01 T00241005  RH  081%=      5-min Rain = 0
KDO1 171335Z 16003KT 02/M01 A2973 RMK A01 T00221007  RH  081%=      5-min Rain = 0
KDO1 171336Z 16003KT 02/M01 A2973 RMK A01 T00191010  RH  082%=      5-min Rain = 0
KDO1 171337Z 16003KT 02/M01 A2973 RMK A01 T00161012  RH  082%=      5-min Rain = 0
KDO1 171338Z 15003KT 01/M01 A2973 RMK A01 T00131014  RH  082%=      5-min Rain = 0
KDO1 171339Z 16003KT 01/M02 A2973 RMK A01 T00121015  RH  083%=      5-min Rain = 0
KDO1 171340Z 17003KT 01/M02 A2973 RMK A01 T00111015  RH  083%=      5-min Rain = 0
KDO1 171341Z 18003KT 01/M01 A2973 RMK A01 T00101014  RH  084%=      5-min Rain = 0
KDO1 171342Z 19004KT 01/M01 A2973 RMK A01 T00111013  RH  084%=      5-min Rain = 0
KDO1 171343Z 20003KT 01/M01 A2973 RMK A01 T00121011  RH  085%=      5-min Rain = 0
KDO1 171344Z 19003KT 01/M01 A2973 RMK A01 T00131010  RH  085%=      5-min Rain = 0
KDO1 171345Z 19004KT 01/M01 A2973 RMK A01 T00141009  RH  085%=      5-min Rain = 0
KDO1 171346Z 19003KT 01/M01 A2973 RMK A01 T00141009  RH  084%=      5-min Rain = 0
KDO1 171347Z 19004KT 02/M01 A2973 RMK A01 T00151008  RH  085%=      5-min Rain = 0
KDO1 171348Z 19004KT 02/M01 A2973 RMK A01 T00171006  RH  085%=      5-min Rain = 0
KDO1 171349Z 18004KT 02/M00 A2973 RMK A01 T00181004  RH  085%=      5-min Rain = 0
KDO1 171350Z 18004KT 02/M00 A2973 RMK A01 T00201003  RH  085%=      5-min Rain = 0
KDO1 171351Z 18004KT 02/M00 A2973 RMK A01 T00211002  RH  084%=      5-min Rain = 0
KDO1 171352Z 19005KT 02/M00 A2973 RMK A01 T00231001  RH  084%=      5-min Rain = 0
KDO1 171353Z 20005KT 02/M00 A2973 RMK A01 T00241002  RH  083%=      5-min Rain = 0
KDO1 171354Z 21004KT 02/M00 A2973 RMK A01 T00231003  RH  083%=      5-min Rain = 0
KDO1 171355Z 22004KT 02/M00 A2973 RMK A01 T00231003  RH  083%=      5-min Rain = 0
KDO1 171356Z 22004KT 02/M00 A2973 RMK A01 T00231003  RH  083%=      5-min Rain = 0
KDO1 171357Z 22004KT 02/M00 A2973 RMK A01 T00231002  RH  083%=      5-min Rain = 0
KDO1 171358Z 22004KT 02/M00 A2973 RMK A01 T00231002  RH  083%=      5-min Rain = 0
KDO1 171359Z 22005KT 02/M00 A2973 RMK A01 T00231002  RH  083%=      5-min Rain = 0
KDO1 171400Z 22004KT 02/M00 A2973 RMK A01 T00231002  RH  084%=      5-min Rain = 0
KDO1 171401Z 22005KT 02/M00 A2973 RMK A01 T00241001  RH  084%=      5-min Rain = 0
KDO1 171402Z 21005KT 03/00 A2973 RMK A01 T002500-0  RH  084%=      5-min Rain = 0
KDO1 171403Z 21005KT 03/00 A2973 RMK A01 T00250000  RH  084%=      5-min Rain = 0
KDO1 171404Z 20005KT 03/00 A2973 RMK A01 T00260001  RH  083%=      5-min Rain = 0
KDO1 171405Z 20005KT 03/00 A2973 RMK A01 T00260001  RH  083%=      5-min Rain = 0
KDO1 171406Z 20005KT 03/00 A2973 RMK A01 T00270001  RH  083%=      5-min Rain = 0
KDO1 171407Z 19004KT 03/00 A2973 RMK A01 T00270002  RH  083%=      5-min Rain = 0
KDO1 171408Z 18004KT 03/00 A2973 RMK A01 T00280002  RH  083%=      5-min Rain = 0
KDO1 171409Z 17004KT 03/00 A2973 RMK A01 T00290003  RH  083%=      5-min Rain = 0
KDO1 171410Z 17003KT 03/01 A2973 RMK A01 T00300005  RH  083%=      5-min Rain = 0
KDO1 171411Z 17003KT 03/01 A2973 RMK A01 T00310005  RH  083%=      5-min Rain = 0
KDO1 171412Z 17003KT 03/01 A2973 RMK A01 T00320006  RH  083%=      5-min Rain = 0
KDO1 171413Z 17004KT 03/01 A2974 RMK A01 T00340007  RH  083%=      5-min Rain = 0
KDO1 171414Z 17003KT 03/01 A2973 RMK A01 T00340007  RH  082%=      5-min Rain = 0
KDO1 171415Z 16003KT 04/01 A2973 RMK A01 T00350007  RH  082%=      5-min Rain = 0
KDO1 171416Z 15002KT 04/01 A2973 RMK A01 T00350008  RH  082%=      5-min Rain = 0
KDO1 171417Z 13001KT 04/01 A2974 RMK A01 T00370009  RH  082%=      5-min Rain = 0
KDO1 171418Z 14002KT 04/01 A2974 RMK A01 T00380009  RH  082%=      5-min Rain = 0
KDO1 171419Z 14003KT 04/01 A2974 RMK A01 T00390010  RH  082%=      5-min Rain = 0
KDO1 171420Z 14001KT 04/01 A2974 RMK A01 T00400011  RH  081%=      5-min Rain = 0
KDO1 171421Z 14001KT 04/01 A2974 RMK A01 T00410011  RH  081%=      5-min Rain = 0
KDO1 171422Z 16001KT 04/01 A2974 RMK A01 T00420012  RH  081%=      5-min Rain = 0
KDO1 171423Z 16001KT 04/01 A2974 RMK A01 T00420012  RH  081%=      5-min Rain = 0
KDO1 171424Z 18001KT 04/01 A2974 RMK A01 T00440013  RH  081%=      5-min Rain = 0
KDO1 171425Z 17001KT 05/02 A2974 RMK A01 T00450015  RH  081%=      5-min Rain = 0
KDO1 171426Z 17002KT 05/02 A2974 RMK A01 T00460015  RH  080%=      5-min Rain = 0
KDO1 171427Z 17001KT 05/02 A2974 RMK A01 T00470016  RH  080%=      5-min Rain = 0
KDO1 171428Z 17003KT 05/02 A2974 RMK A01 T00490017  RH  080%=      5-min Rain = 0
KDO1 171429Z 16002KT 05/02 A2974 RMK A01 T00490016  RH  079%=      5-min Rain = 0
KDO1 171430Z 16002KT 05/02 A2974 RMK A01 T00500017  RH  080%=      5-min Rain = 0
KDO1 171431Z 17002KT 05/02 A2974 RMK A01 T00510018  RH  079%=      5-min Rain = 0
KDO1 171432Z 17002KT 05/02 A2974 RMK A01 T00510017  RH  079%=      5-min Rain = 0
KDO1 171433Z 18003KT 05/02 A2974 RMK A01 T00510017  RH  079%=      5-min Rain = 0
KDO1 171434Z 18003KT 05/02 A2974 RMK A01 T00510017  RH  079%=      5-min Rain = 0
KDO1 171435Z 18002KT 05/02 A2974 RMK A01 T00520018  RH  079%=      5-min Rain = 0
KDO1 171436Z 17003KT 05/02 A2974 RMK A01 T00520018  RH  079%=      5-min Rain = 0
KDO1 171437Z 17002KT 05/02 A2974 RMK A01 T00520018  RH  079%=      5-min Rain = 0
KDO1 171438Z 17001KT 05/02 A2974 RMK A01 T00520018  RH  078%=      5-min Rain = 0
KDO1 171439Z 17002KT 05/02 A2974 RMK A01 T00520018  RH  079%=      5-min Rain = 0
KDO1 171440Z 18002KT 05/02 A2974 RMK A01 T00520017  RH  078%=      5-min Rain = 0
KDO1 171441Z 19001KT 05/02 A2974 RMK A01 T00520017  RH  078%=      5-min Rain = 0
KDO1 171442Z 18001KT 05/02 A2974 RMK A01 T00520018  RH  079%=      5-min Rain = 0
KDO1 171443Z 17000KT 05/02 A2974 RMK A01 T00530018  RH  078%=      5-min Rain = 0
KDO1 171444Z 00000KT 05/02 A2974 RMK A01 T00540019  RH  079%=      5-min Rain = 0
KDO1 171445Z 19000KT 06/02 A2974 RMK A01 T00550021  RH  079%=      5-min Rain = 0
KDO1 171446Z 15000KT 06/02 A2974 RMK A01 T00580023  RH  079%=      5-min Rain = 0
KDO1 171447Z 09001KT 06/02 A2974 RMK A01 T00600024  RH  078%=      5-min Rain = 0
KDO1 171448Z 08002KT 06/02 A2974 RMK A01 T00610024  RH  077%=      5-min Rain = 0
KDO1 171449Z 08002KT 06/02 A2974 RMK A01 T00610023  RH  077%=      5-min Rain = 0
KDO1 171450Z 08001KT 06/02 A2974 RMK A01 T00600023  RH  077%=      5-min Rain = 0
KDO1 171451Z 08001KT 06/02 A2974 RMK A01 T00600022  RH  077%=      5-min Rain = 0
KDO1 171452Z 06000KT 06/02 A2974 RMK A01 T00600022  RH  077%=      5-min Rain = 0
KDO1 171453Z 05000KT 06/02 A2974 RMK A01 T00590022  RH  077%=      5-min Rain = 0
KDO1 171454Z 04000KT 06/02 A2974 RMK A01 T00590021  RH  077%=      5-min Rain = 0
KDO1 171455Z 00000KT 06/02 A2974 RMK A01 T00590023  RH  077%=      5-min Rain = 0
KDO1 171456Z 00000KT 06/02 A2974 RMK A01 T00610024  RH  077%=      5-min Rain = 0
KDO1 171457Z 26000KT 06/02 A2974 RMK A01 T00620024  RH  077%=      5-min Rain = 0
KDO1 171458Z 24001KT 06/02 A2974 RMK A01 T00620023  RH  076%=      5-min Rain = 0
KDO1 171459Z 21002KT 06/02 A2974 RMK A01 T00620022  RH  076%=      5-min Rain = 0
KDO1 171500Z 23001KT 06/02 A2974 RMK A01 T00620022  RH  076%=      5-min Rain = 0
KDO1 171501Z 23001KT 06/02 A2974 RMK A01 T00610022  RH  076%=      5-min Rain = 0
KDO1 171502Z 21000KT 06/02 A2974 RMK A01 T00610022  RH  076%=      5-min Rain = 0
KDO1 171503Z 25001KT 06/02 A2974 RMK A01 T00610023  RH  076%=      5-min Rain = 0
KDO1 171504Z 25002KT 06/02 A2974 RMK A01 T00620023  RH  076%=      5-min Rain = 0
KDO1 171505Z 25001KT 06/02 A2974 RMK A01 T00620022  RH  076%=      5-min Rain = 0
KDO1 171506Z 25002KT 06/02 A2974 RMK A01 T00620023  RH  076%=      5-min Rain = 0
KDO1 171507Z 26002KT 06/02 A2974 RMK A01 T00620023  RH  076%=      5-min Rain = 0
KDO1 171508Z 26003KT 06/02 A2974 RMK A01 T00620023  RH  076%=      5-min Rain = 0
KDO1 171509Z 25003KT 06/02 A2974 RMK A01 T00620023  RH  076%=      5-min Rain = 0
KDO1 171510Z 25003KT 06/02 A2974 RMK A01 T00620023  RH  076%=      5-min Rain = 0
KDO1 171511Z 25003KT 06/02 A2974 RMK A01 T00620023  RH  076%=      5-min Rain = 0
KDO1 171512Z 25004KT 06/02 A2974 RMK A01 T00630024  RH  076%=      5-min Rain = 0
KDO1 171513Z 24004KT 06/03 A2974 RMK A01 T00640026  RH  077%=      5-min Rain = 0
KDO1 171514Z 24004KT 07/03 A2974 RMK A01 T00660027  RH  076%=      5-min Rain = 0
KDO1 171515Z 25004KT 07/03 A2974 RMK A01 T00670027  RH  076%=      5-min Rain = 0
KDO1 171516Z 25004KT 07/03 A2974 RMK A01 T00670027  RH  076%=      5-min Rain = 0
KDO1 171517Z 25004KT 07/03 A2974 RMK A01 T00680029  RH  076%=      5-min Rain = 0
KDO1 171518Z 25005KT 07/03 A2974 RMK A01 T00700030  RH  076%=      5-min Rain = 0
KDO1 171519Z 26004KT 07/03 A2974 RMK A01 T00700030  RH  075%=      5-min Rain = 0
KDO1 171520Z 27003KT 07/03 A2974 RMK A01 T00720032  RH  076%=      5-min Rain = 0
KDO1 171521Z 26005KT 07/03 A2974 RMK A01 T00730033  RH  076%=      5-min Rain = 0
KDO1 171522Z 26005KT 08/03 A2974 RMK A01 T00750033  RH  075%=      5-min Rain = 0
KDO1 171523Z 25005KT 08/03 A2974 RMK A01 T00760032  RH  074%=      5-min Rain = 0
KDO1 171524Z 25005KT 08/03 A2974 RMK A01 T00760031  RH  073%=      5-min Rain = 0
KDO1 171525Z 26004KT 08/03 A2974 RMK A01 T00760031  RH  073%=      5-min Rain = 0
KDO1 171526Z 25005KT 08/03 A2974 RMK A01 T00770033  RH  074%=      5-min Rain = 0
KDO1 171527Z 25004KT 08/03 A2974 RMK A01 T00770031  RH  072%=      5-min Rain = 0
KDO1 171528Z 26005KT 08/03 A2974 RMK A01 T00780032  RH  072%=      5-min Rain = 0
KDO1 171529Z 25004KT 08/03 A2974 RMK A01 T00790032  RH  072%=      5-min Rain = 0
KDO1 171530Z 24005KT 08/03 A2974 RMK A01 T00800032  RH  072%=      5-min Rain = 0
KDO1 171531Z 24005KT 08/03 A2974 RMK A01 T00810032  RH  071%=      5-min Rain = 0
KDO1 171532Z 25006KT 08/03 A2974 RMK A01 T00810030  RH  070%=      5-min Rain = 0
KDO1 171533Z 25006KT 08/03 A2974 RMK A01 T00810029  RH  070%=      5-min Rain = 0
KDO1 171534Z 24005KT 08/03 A2974 RMK A01 T00810029  RH  070%=      5-min Rain = 0
KDO1 171535Z 25005KT 08/03 A2974 RMK A01 T00810031  RH  070%=      5-min Rain = 0
KDO1 171536Z 25005KT 08/03 A2974 RMK A01 T00840033  RH  071%=      5-min Rain = 0
KDO1 171537Z 24005KT 09/04 A2974 RMK A01 T00850035  RH  071%=      5-min Rain = 0
KDO1 171538Z 24006KT 09/03 A2974 RMK A01 T00860034  RH  070%=      5-min Rain = 0
KDO1 171539Z 24006KT 09/03 A2974 RMK A01 T00860033  RH  069%=      5-min Rain = 0
KDO1 171540Z 24006KT 09/03 A2974 RMK A01 T00860033  RH  069%=      5-min Rain = 0
KDO1 171541Z 24006KT 09/03 A2974 RMK A01 T00870033  RH  069%=      5-min Rain = 0
KDO1 171542Z 24006KT 09/03 A2974 RMK A01 T00870033  RH  069%=      5-min Rain = 0
KDO1 171543Z 24006KT 09/03 A2974 RMK A01 T00880034  RH  069%=      5-min Rain = 0
KDO1 171544Z 24006KT 09/04 A2974 RMK A01 T00890036  RH  069%=      5-min Rain = 0
KDO1 171545Z 25006KT 09/04 A2974 RMK A01 T00900035  RH  068%=      5-min Rain = 0
KDO1 171546Z 24005KT 09/04 A2974 RMK A01 T00900036  RH  069%=      5-min Rain = 0
KDO1 171547Z 25005KT 09/04 A2974 RMK A01 T00900037  RH  069%=      5-min Rain = 0
KDO1 171548Z 25005KT 09/04 A2974 RMK A01 T00920039  RH  069%=      5-min Rain = 0
KDO1 171549Z 25005KT 09/04 A2974 RMK A01 T00940039  RH  069%=      5-min Rain = 0
KDO1 171550Z 24007KT 10/04 A2974 RMK A01 T00960039  RH  068%=      5-min Rain = 0
KDO1 171551Z 24007KT 10/04 A2974 RMK A01 T00970038  RH  067%=      5-min Rain = 0
KDO1 171552Z 24007KT 10/04 A2974 RMK A01 T00990038  RH  066%=      5-min Rain = 0
KDO1 171553Z 23007KT 10/04 A2974 RMK A01 T01000037  RH  065%=      5-min Rain = 0
KDO1 171554Z 23007KT 10/04 A2974 RMK A01 T01010036  RH  064%=      5-min Rain = 0
KDO1 171555Z 22009KT 10/04 A2974 RMK A01 T01020036  RH  064%=      5-min Rain = 0
KDO1 171556Z 22010KT 10/03 A2974 RMK A01 T01030034  RH  062%=      5-min Rain = 0
KDO1 171557Z 23008KT 10/04 A2974 RMK A01 T01040035  RH  062%=      5-min Rain = 0
KDO1 171558Z 22009KT 11/04 A2974 RMK A01 T01050036  RH  062%=      5-min Rain = 0
KDO1 171559Z 22007KT 11/04 A2974 RMK A01 T01060036  RH  062%=      5-min Rain = 0
KDO1 171600Z 25008KT 11/04 A2974 RMK A01 T01070037  RH  062%=      5-min Rain = 0
KDO1 171601Z 24008KT 11/04 A2974 RMK A01 T01080036  RH  061%=      5-min Rain = 0
KDO1 171602Z 24008KT 11/04 A2974 RMK A01 T01080037  RH  061%=      5-min Rain = 0
KDO1 171603Z 24009KT 11/04 A2974 RMK A01 T01090036  RH  061%=      5-min Rain = 0
KDO1 171604Z 23008KT 11/04 A2974 RMK A01 T01090037  RH  061%=      5-min Rain = 0
KDO1 171605Z 24008KT 11/04 A2974 RMK A01 T01110039  RH  061%=      5-min Rain = 0
KDO1 171606Z 23008KT 11/04 A2974 RMK A01 T01120038  RH  060%=      5-min Rain = 0
KDO1 171607Z 24008KT 11/04 A2974 RMK A01 T01120039  RH  061%=      5-min Rain = 0
KDO1 171608Z 23009KT 11/04 A2974 RMK A01 T01130037  RH  060%=      5-min Rain = 0
KDO1 171609Z 23008KT 11/04 A2974 RMK A01 T01130037  RH  059%=      5-min Rain = 0
KDO1 171610Z 23009KT 11/04 A2974 RMK A01 T01130036  RH  059%=      5-min Rain = 0
KDO1 171611Z 23009KT 11/04 A2974 RMK A01 T01130035  RH  058%=      5-min Rain = 0
KDO1 171612Z 22009KT 11/03 A2974 RMK A01 T01130034  RH  058%=      5-min Rain = 0
KDO1 171613Z 22007KT 11/04 A2974 RMK A01 T01130035  RH  058%=      5-min Rain = 0
KDO1 171614Z 22006KT 11/03 A2974 RMK A01 T01140034  RH  058%=      5-min Rain = 0
KDO1 171615Z 21006KT 11/04 A2974 RMK A01 T01140036  RH  059%=      5-min Rain = 0
KDO1 171616Z 23007KT 12/04 A2974 RMK A01 T01170039  RH  059%=      5-min Rain = 0
KDO1 171617Z 23005KT 12/04 A2974 RMK A01 T01180036  RH  057%=      5-min Rain = 0
KDO1 171618Z 22007KT 12/04 A2974 RMK A01 T01180037  RH  057%=      5-min Rain = 0
KDO1 171619Z 22007KT 12/04 A2974 RMK A01 T01200037  RH  057%=      5-min Rain = 0
KDO1 171620Z 23008KT 12/04 A2974 RMK A01 T01210036  RH  056%=      5-min Rain = 0
KDO1 171621Z 21008KT 12/04 A2974 RMK A01 T01210035  RH  056%=      5-min Rain = 0
KDO1 171622Z 21008KT 12/04 A2974 RMK A01 T01220035  RH  055%=      5-min Rain = 0
KDO1 171623Z 22007KT 12/03 A2974 RMK A01 T01220034  RH  055%=      5-min Rain = 0
KDO1 171624Z 21005KT 12/04 A2974 RMK A01 T01230035  RH  055%=      5-min Rain = 0
KDO1 171625Z 22006KT 12/04 A2974 RMK A01 T01240036  RH  055%=      5-min Rain = 0
KDO1 171626Z 22005KT 12/04 A2974 RMK A01 T01240036  RH  055%=      5-min Rain = 0
KDO1 171627Z 21007KT 13/04 A2974 RMK A01 T01250037  RH  055%=      5-min Rain = 0
KDO1 171628Z 21008KT 13/04 A2974 RMK A01 T01270037  RH  055%=      5-min Rain = 0
KDO1 171629Z 21008KT 13/04 A2974 RMK A01 T01270037  RH  054%=      5-min Rain = 0
KDO1 171630Z 21007KT 13/04 A2974 RMK A01 T01280037  RH  054%=      5-min Rain = 0
KDO1 171631Z 23007KT 13/04 A2974 RMK A01 T01290036  RH  053%=      5-min Rain = 0
KDO1 171632Z 22008KT 13/04 A2974 RMK A01 T01290035  RH  053%=      5-min Rain = 0
KDO1 171633Z 22006KT 13/03 A2974 RMK A01 T01280034  RH  053%=      5-min Rain = 0
KDO1 171634Z 22005KT 13/03 A2974 RMK A01 T01280034  RH  053%=      5-min Rain = 0
KDO1 171635Z 24006KT 13/04 A2974 RMK A01 T01280035  RH  053%=      5-min Rain = 0
KDO1 171636Z 24006KT 13/04 A2974 RMK A01 T01290037  RH  053%=      5-min Rain = 0
KDO1 171637Z 23006KT 13/04 A2973 RMK A01 T01310035  RH  052%=      5-min Rain = 0
KDO1 171638Z 22005KT 13/04 A2973 RMK A01 T01300035  RH  052%=      5-min Rain = 0
KDO1 171639Z 21007KT 13/04 A2973 RMK A01 T01300036  RH  053%=      5-min Rain = 0
KDO1 171640Z 22005KT 13/04 A2973 RMK A01 T01310035  RH  052%=      5-min Rain = 0
KDO1 171641Z 21006KT 13/04 A2973 RMK A01 T01320037  RH  053%=      5-min Rain = 0
KDO1 171642Z 22007KT 13/04 A2973 RMK A01 T01330036  RH  052%=      5-min Rain = 0
KDO1 171643Z 22006KT 13/04 A2973 RMK A01 T01340037  RH  052%=      5-min Rain = 0
KDO1 171644Z 23006KT 14/04 A2973 RMK A01 T01350037  RH  051%=      5-min Rain = 0
KDO1 171645Z 22007KT 14/04 A2973 RMK A01 T01360035  RH  051%=      5-min Rain = 0
KDO1 171646Z 23007KT 14/04 A2973 RMK A01 T01350035  RH  051%=      5-min Rain = 0
KDO1 171647Z 22007KT 14/04 A2973 RMK A01 T01360037  RH  051%=      5-min Rain = 0
KDO1 171648Z 21007KT 14/04 A2973 RMK A01 T01380037  RH  051%=      5-min Rain = 0
KDO1 171649Z 23006KT 14/04 A2973 RMK A01 T01380037  RH  050%=      5-min Rain = 0
KDO1 171650Z 22006KT 14/04 A2973 RMK A01 T01390037  RH  050%=      5-min Rain = 0
KDO1 171651Z 22008KT 14/04 A2973 RMK A01 T01390036  RH  050%=      5-min Rain = 0
KDO1 171652Z 22009KT 14/04 A2973 RMK A01 T01390035  RH  049%=      5-min Rain = 0
KDO1 171653Z 21007KT 14/04 A2973 RMK A01 T01390035  RH  049%=      5-min Rain = 0
KDO1 171654Z 21007KT 14/04 A2973 RMK A01 T01390036  RH  050%=      5-min Rain = 0
KDO1 171655Z 21008KT 14/03 A2973 RMK A01 T01390034  RH  049%=      5-min Rain = 0
KDO1 171656Z 22009KT 14/04 A2973 RMK A01 T01390036  RH  050%=      5-min Rain = 0
KDO1 171657Z 22008KT 14/04 A2973 RMK A01 T01410036  RH  049%=      5-min Rain = 0
KDO1 171658Z 21007KT 14/04 A2973 RMK A01 T01420036  RH  049%=      5-min Rain = 0
KDO1 171659Z 20005KT 14/04 A2973 RMK A01 T01420036  RH  049%=      5-min Rain = 0
KDO1 171700Z 18006KT 14/04 A2973 RMK A01 T01430037  RH  049%=      5-min Rain = 0
KDO1 171701Z 19007KT 14/04 A2973 RMK A01 T01430037  RH  049%=      5-min Rain = 0
KDO1 171702Z 20007KT 15/04 A2973 RMK A01 T01450038  RH  049%=      5-min Rain = 0
KDO1 171703Z 19008KT 15/04 A2973 RMK A01 T01460039  RH  049%=      5-min Rain = 0
KDO1 171704Z 19007KT 15/04 A2973 RMK A01 T01470039  RH  048%=      5-min Rain = 0
KDO1 171705Z 20005KT 15/04 A2973 RMK A01 T01490041  RH  048%=      5-min Rain = 0
KDO1 171706Z 22006KT 15/04 A2973 RMK A01 T01500040  RH  048%=      5-min Rain = 0
KDO1 171707Z 21005KT 15/04 A2973 RMK A01 T01510038  RH  047%=      5-min Rain = 0
KDO1 171708Z 22005KT 15/04 A2973 RMK A01 T01510037  RH  046%=      5-min Rain = 0
KDO1 171709Z 17005KT 15/04 A2973 RMK A01 T01500037  RH  047%=      5-min Rain = 0
KDO1 171710Z 15005KT 15/04 A2973 RMK A01 T01500040  RH  048%=      5-min Rain = 0
KDO1 171711Z 16005KT 15/04 A2973 RMK A01 T01510041  RH  048%=      5-min Rain = 0
KDO1 171712Z 17003KT 15/04 A2973 RMK A01 T01520039  RH  047%=      5-min Rain = 0
KDO1 171713Z 16001KT 15/04 A2973 RMK A01 T01520041  RH  047%=      5-min Rain = 0
KDO1 171714Z 18005KT 15/04 A2973 RMK A01 T01520041  RH  047%=      5-min Rain = 0
KDO1 171715Z 17006KT 15/04 A2973 RMK A01 T01530041  RH  047%=      5-min Rain = 0
KDO1 171716Z 17005KT 16/04 A2973 RMK A01 T01550044  RH  048%=      5-min Rain = 0
KDO1 171717Z 18005KT 16/05 A2973 RMK A01 T01570046  RH  048%=      5-min Rain = 0
KDO1 171718Z 19005KT 16/04 A2973 RMK A01 T01590044  RH  046%=      5-min Rain = 0
KDO1 171719Z 17004KT 16/04 A2973 RMK A01 T01590042  RH  046%=      5-min Rain = 0
KDO1 171720Z 16006KT 16/04 A2973 RMK A01 T01580042  RH  046%=      5-min Rain = 0
KDO1 171721Z 17006KT 16/04 A2973 RMK A01 T01580041  RH  046%=      5-min Rain = 0
KDO1 171722Z 16005KT 16/04 A2973 RMK A01 T01580040  RH  045%=      5-min Rain = 0
KDO1 171723Z 18004KT 16/04 A2972 RMK A01 T01580043  RH  046%=      5-min Rain = 0
KDO1 171724Z 16006KT 16/04 A2972 RMK A01 T01590041  RH  045%=      5-min Rain = 0
KDO1 171725Z 18006KT 16/04 A2972 RMK A01 T01600043  RH  046%=      5-min Rain = 0
KDO1 171726Z 16006KT 16/04 A2972 RMK A01 T01610044  RH  046%=      5-min Rain = 0
KDO1 171727Z 16008KT 16/04 A2972 RMK A01 T01630042  RH  045%=      5-min Rain = 0
KDO1 171728Z 15008KT 16/04 A2972 RMK A01 T01620040  RH  044%=      5-min Rain = 0
KDO1 171729Z 14007KT 16/04 A2972 RMK A01 T01610039  RH  044%=      5-min Rain = 0
KDO1 171730Z 14007KT 16/04 A2972 RMK A01 T01610039  RH  044%=      5-min Rain = 0
KDO1 171731Z 13008KT 16/04 A2972 RMK A01 T01610041  RH  045%=      5-min Rain = 0
KDO1 171732Z 14006KT 16/04 A2972 RMK A01 T01620041  RH  045%=      5-min Rain = 0
KDO1 171733Z 15006KT 16/04 A2972 RMK A01 T01630044  RH  045%=      5-min Rain = 0
KDO1 171734Z 16004KT 16/04 A2972 RMK A01 T01630043  RH  045%=      5-min Rain = 0
KDO1 171735Z 12003KT 16/04 A2972 RMK A01 T01640043  RH  045%=      5-min Rain = 0
KDO1 171736Z 13005KT 16/04 A2972 RMK A01 T01640042  RH  044%=      5-min Rain = 0
KDO1 171737Z 17004KT 16/04 A2972 RMK A01 T01640044  RH  045%=      5-min Rain = 0
KDO1 171738Z 17006KT 17/04 A2972 RMK A01 T01650044  RH  045%=      5-min Rain = 0
KDO1 171739Z 15005KT 17/05 A2972 RMK A01 T01670048  RH  045%=      5-min Rain = 0
KDO1 171740Z 16005KT 17/04 A2972 RMK A01 T01680044  RH  044%=      5-min Rain = 0
KDO1 171741Z 17004KT 17/05 A2972 RMK A01 T01690045  RH  044%=      5-min Rain = 0
KDO1 171742Z 16004KT 17/05 A2972 RMK A01 T01680045  RH  044%=      5-min Rain = 0
KDO1 171743Z 14007KT 17/05 A2972 RMK A01 T01680045  RH  044%=      5-min Rain = 0
KDO1 171744Z 15005KT 17/04 A2972 RMK A01 T01680042  RH  043%=      5-min Rain = 0
KDO1 171745Z 14009KT 17/04 A2972 RMK A01 T01680044  RH  044%=      5-min Rain = 0
KDO1 171746Z 16005KT 17/04 A2972 RMK A01 T01680042  RH  043%=      5-min Rain = 0
KDO1 171747Z 12005KT 17/05 A2972 RMK A01 T01680045  RH  044%=      5-min Rain = 0
KDO1 171748Z 14009KT 17/04 A2972 RMK A01 T01700044  RH  043%=      5-min Rain = 0
KDO1 171749Z 15007KT 17/04 A2972 RMK A01 T01710042  RH  042%=      5-min Rain = 0
KDO1 171750Z 14005KT 17/04 A2972 RMK A01 T01710042  RH  042%=      5-min Rain = 0
KDO1 171751Z 15007KT 17/04 A2972 RMK A01 T01720042  RH  042%=      5-min Rain = 0
KDO1 171752Z 15005KT 17/04 A2971 RMK A01 T01720040  RH  041%=      5-min Rain = 0
KDO1 171753Z 14005KT 17/04 A2971 RMK A01 T01710040  RH  042%=      5-min Rain = 0
KDO1 171754Z 16008KT 17/04 A2971 RMK A01 T01710040  RH  042%=      5-min Rain = 0
KDO1 171755Z 16007KT 17/04 A2971 RMK A01 T01720039  RH  041%=      5-min Rain = 0
KDO1 171756Z 18009KT 17/04 A2971 RMK A01 T01730039  RH  041%=      5-min Rain = 0
KDO1 171757Z 19008KT 17/04 A2971 RMK A01 T01740039  RH  041%=      5-min Rain = 0
KDO1 171758Z 18009KT 18/04 A2971 RMK A01 T01750040  RH  041%=      5-min Rain = 0
KDO1 171759Z 18009KT 18/04 A2971 RMK A01 T01750040  RH  040%=      5-min Rain = 0
KDO1 171800Z 18005KT 18/04 A2971 RMK A01 T01750036  RH  040%=      5-min Rain = 0
KDO1 171801Z 18005KT 17/04 A2971 RMK A01 T01740037  RH  040%=      5-min Rain = 0
KDO1 171802Z 15009KT 18/04 A2971 RMK A01 T01750037  RH  040%=      5-min Rain = 0
KDO1 171803Z 16007KT 18/04 A2971 RMK A01 T01760037  RH  040%=      5-min Rain = 0
KDO1 171804Z 16010KT 18/04 A2971 RMK A01 T01770038  RH  039%=      5-min Rain = 0
KDO1 171805Z 17011KT 18/04 A2971 RMK A01 T01790037  RH  039%=      5-min Rain = 0
KDO1 171806Z 18008KT 18/03 A297 RMK A01 T01790034  RH  038%=      5-min Rain = 0
KDO1 171807Z 18011KT 18/03 A297 RMK A01 T01770034  RH  038%=      5-min Rain = 0
KDO1 171808Z 18011KT 18/03 A297 RMK A01 T01770034  RH  038%=      5-min Rain = 0
KDO1 171809Z 18008KT 18/03 A297 RMK A01 T01770033  RH  038%=      5-min Rain = 0
KDO1 171810Z 18008KT 18/03 A297 RMK A01 T01770032  RH  038%=      5-min Rain = 0
KDO1 171811Z 19010KT 18/04 A297 RMK A01 T01780035  RH  039%=      5-min Rain = 0
KDO1 171812Z 18010KT 18/03 A297 RMK A01 T01790033  RH  038%=      5-min Rain = 0
KDO1 171813Z 17007KT 18/03 A297 RMK A01 T01780031  RH  037%=      5-min Rain = 0
KDO1 171814Z 18006G11KT 18/03 A297 RMK A01 T01770032  RH  038%=      5-min Rain = 0
KDO1 171815Z 20009KT 18/03 A297 RMK A01 T01780032  RH  038%=      5-min Rain = 0
KDO1 171816Z 19009KT 18/04 A297 RMK A01 T01780035  RH  039%=      5-min Rain = 0
KDO1 171817Z 18011KT 18/04 A297 RMK A01 T01790036  RH  038%=      5-min Rain = 0
KDO1 171818Z 19010KT 18/04 A297 RMK A01 T01800037  RH  039%=      5-min Rain = 0
KDO1 171819Z 18008KT 18/04 A297 RMK A01 T01810035  RH  038%=      5-min Rain = 0
KDO1 171820Z 18007KT 18/04 A297 RMK A01 T01810035  RH  038%=      5-min Rain = 0
KDO1 171821Z 19010KT 18/04 A297 RMK A01 T01820037  RH  038%=      5-min Rain = 0
KDO1 171822Z 18009KT 18/04 A297 RMK A01 T01820037  RH  038%=      5-min Rain = 0
KDO1 171823Z 17009KT 18/04 A297 RMK A01 T01820035  RH  038%=      5-min Rain = 0
KDO1 171824Z 16006KT 18/04 A297 RMK A01 T01820035  RH  038%=      5-min Rain = 0
KDO1 171825Z 17008KT 18/04 A2969 RMK A01 T01820036  RH  038%=      5-min Rain = 0
KDO1 171826Z 15007KT 18/04 A2969 RMK A01 T01820037  RH  038%=      5-min Rain = 0
KDO1 171827Z 17010KT 18/04 A2969 RMK A01 T01840039  RH  038%=      5-min Rain = 0
KDO1 171828Z 16010KT 19/04 A2969 RMK A01 T01860038  RH  037%=      5-min Rain = 0
KDO1 171829Z 18010KT 19/04 A2969 RMK A01 T01860035  RH  037%=      5-min Rain = 0
KDO1 171830Z 18012KT 19/03 A2969 RMK A01 T01850034  RH  037%=      5-min Rain = 0
KDO1 171831Z 17011KT 18/03 A2969 RMK A01 T01830033  RH  037%=      5-min Rain = 0
KDO1 171832Z 17010KT 18/04 A2969 RMK A01 T01830035  RH  037%=      5-min Rain = 0
KDO1 171833Z 19010KT 18/04 A2969 RMK A01 T01840035  RH  037%=      5-min Rain = 0
KDO1 171834Z 20008KT 19/04 A2969 RMK A01 T01850036  RH  037%=      5-min Rain = 0
KDO1 171835Z 18007KT 19/03 A2969 RMK A01 T01860034  RH  037%=      5-min Rain = 0
KDO1 171836Z 17009G14KT 19/04 A2969 RMK A01 T01860036  RH  037%=      5-min Rain = 0
KDO1 171837Z 17011KT 19/04 A2969 RMK A01 T01850035  RH  037%=      5-min Rain = 0
KDO1 171838Z 17012KT 19/04 A2969 RMK A01 T01860036  RH  037%=      5-min Rain = 0
KDO1 171839Z 18010KT 19/04 A2969 RMK A01 T01860036  RH  037%=      5-min Rain = 0
KDO1 171840Z 17009KT 19/04 A2969 RMK A01 T01860036  RH  037%=      5-min Rain = 0
KDO1 171841Z 16008KT 19/04 A2969 RMK A01 T01860035  RH  037%=      5-min Rain = 0
KDO1 171842Z 17006KT 19/04 A2969 RMK A01 T01870035  RH  036%=      5-min Rain = 0
KDO1 171843Z 18009KT 19/04 A2969 RMK A01 T01870040  RH  038%=      5-min Rain = 0
KDO1 171844Z 16008KT 19/04 A2969 RMK A01 T01890038  RH  037%=      5-min Rain = 0
KDO1 171845Z 18009KT 19/04 A2969 RMK A01 T01910038  RH  036%=      5-min Rain = 0
KDO1 171846Z 17011KT 19/04 A2968 RMK A01 T01910037  RH  036%=      5-min Rain = 0
KDO1 171847Z 19009KT 19/04 A2968 RMK A01 T01910036  RH  036%=      5-min Rain = 0
KDO1 171848Z 19010KT 19/04 A2968 RMK A01 T01910038  RH  036%=      5-min Rain = 0
KDO1 171849Z 19011KT 19/04 A2968 RMK A01 T01910037  RH  036%=      5-min Rain = 0
KDO1 171850Z 18008KT 19/04 A2968 RMK A01 T01900037  RH  036%=      5-min Rain = 0
KDO1 171851Z 18010KT 19/04 A2968 RMK A01 T01900039  RH  037%=      5-min Rain = 0
KDO1 171852Z 18011KT 19/04 A2968 RMK A01 T01910038  RH  036%=      5-min Rain = 0
KDO1 171853Z 17010KT 19/04 A2968 RMK A01 T01910035  RH  036%=      5-min Rain = 0
KDO1 171854Z 17008KT 19/04 A2968 RMK A01 T01900036  RH  036%=      5-min Rain = 0
KDO1 171855Z 18013KT 19/04 A2968 RMK A01 T01900036  RH  036%=      5-min Rain = 0
KDO1 171856Z 18011KT 19/04 A2968 RMK A01 T01900036  RH  036%=      5-min Rain = 0
KDO1 171857Z 17010KT 19/04 A2968 RMK A01 T01910036  RH  036%=      5-min Rain = 0
KDO1 171858Z 17010KT 19/04 A2968 RMK A01 T01900036  RH  036%=      5-min Rain = 0
KDO1 171859Z 20007KT 19/04 A2968 RMK A01 T01910038  RH  036%=      5-min Rain = 0
KDO1 171900Z 19008KT 19/04 A2968 RMK A01 T01920039  RH  036%=      5-min Rain = 0
KDO1 171901Z 17010KT 19/05 A2968 RMK A01 T01940045  RH  037%=      5-min Rain = 0
KDO1 171902Z 18008KT 20/04 A2968 RMK A01 T01960043  RH  036%=      5-min Rain = 0
KDO1 171903Z 17009KT 20/04 A2968 RMK A01 T01960041  RH  036%=      5-min Rain = 0
KDO1 171904Z 18010G16KT 20/04 A2968 RMK A01 T01950041  RH  036%=      5-min Rain = 0
KDO1 171905Z 17007KT 19/04 A2967 RMK A01 T01940041  RH  037%=      5-min Rain = 0
KDO1 171906Z 16009KT 19/04 A2967 RMK A01 T01930040  RH  036%=      5-min Rain = 0
KDO1 171907Z 16010KT 19/04 A2967 RMK A01 T01930040  RH  036%=      5-min Rain = 0
KDO1 171908Z 17011KT 19/04 A2967 RMK A01 T01930037  RH  035%=      5-min Rain = 0
KDO1 171909Z 16010KT 19/04 A2967 RMK A01 T01920038  RH  036%=      5-min Rain = 0
KDO1 171910Z 19007KT 19/04 A2967 RMK A01 T01910041  RH  037%=      5-min Rain = 0
KDO1 171911Z 20008KT 19/04 A2967 RMK A01 T01930043  RH  037%=      5-min Rain = 0
KDO1 171912Z 17010KT 19/04 A2967 RMK A01 T01940042  RH  036%=      5-min Rain = 0
KDO1 171913Z 17011KT 19/04 A2967 RMK A01 T01940041  RH  036%=      5-min Rain = 0
KDO1 171914Z 19011KT 19/04 A2967 RMK A01 T01940039  RH  036%=      5-min Rain = 0
KDO1 171915Z 17009KT 19/04 A2967 RMK A01 T01920039  RH  036%=      5-min Rain = 0
KDO1 171916Z 17009KT 19/04 A2967 RMK A01 T01920041  RH  037%=      5-min Rain = 0
KDO1 171917Z 18011KT 19/04 A2967 RMK A01 T01920042  RH  037%=      5-min Rain = 0
KDO1 171918Z 19008KT 19/04 A2967 RMK A01 T01930044  RH  037%=      5-min Rain = 0
KDO1 171919Z 18008KT 19/05 A2967 RMK A01 T01940045  RH  037%=      5-min Rain = 0
KDO1 171920Z 19008KT 20/05 A2967 RMK A01 T01950047  RH  038%=      5-min Rain = 0
KDO1 171921Z 20008KT 20/04 A2967 RMK A01 T01950043  RH  037%=      5-min Rain = 0
KDO1 171922Z 19010KT 20/04 A2967 RMK A01 T01950040  RH  036%=      5-min Rain = 0
KDO1 171923Z 18008KT 19/04 A2967 RMK A01 T01940041  RH  036%=      5-min Rain = 0
KDO1 171924Z 19009KT 19/04 A2967 RMK A01 T01940042  RH  037%=      5-min Rain = 0
KDO1 171925Z 18009KT 19/04 A2967 RMK A01 T01930041  RH  036%=      5-min Rain = 0
KDO1 171926Z 18009KT 19/04 A2967 RMK A01 T01940041  RH  037%=      5-min Rain = 0
KDO1 171927Z 19010KT 20/04 A2967 RMK A01 T01950044  RH  037%=      5-min Rain = 0
KDO1 171928Z 17007KT 20/05 A2967 RMK A01 T01960045  RH  037%=      5-min Rain = 0
KDO1 171929Z 17009KT 20/05 A2967 RMK A01 T01980046  RH  037%=      5-min Rain = 0
KDO1 171930Z 17010KT 20/04 A2967 RMK A01 T01990042  RH  035%=      5-min Rain = 0
KDO1 171931Z 16007KT 20/04 A2967 RMK A01 T01990039  RH  035%=      5-min Rain = 0
KDO1 171932Z 17012KT 20/04 A2966 RMK A01 T01970041  RH  036%=      5-min Rain = 0
KDO1 171933Z 18010KT 20/04 A2967 RMK A01 T01980039  RH  035%=      5-min Rain = 0
KDO1 171934Z 18009KT 20/04 A2967 RMK A01 T01980041  RH  035%=      5-min Rain = 0
KDO1 171935Z 17007KT 20/04 A2967 RMK A01 T01980041  RH  035%=      5-min Rain = 0
KDO1 171936Z 18010KT 20/04 A2967 RMK A01 T01980042  RH  036%=      5-min Rain = 0
KDO1 171937Z 19008KT 20/04 A2966 RMK A01 T01990043  RH  036%=      5-min Rain = 0
KDO1 171938Z 17008KT 20/05 A2966 RMK A01 T02000045  RH  036%=      5-min Rain = 0
KDO1 171939Z 16010KT 20/04 A2966 RMK A01 T02010042  RH  035%=      5-min Rain = 0
KDO1 171940Z 15010KT 20/04 A2966 RMK A01 T02010041  RH  035%=      5-min Rain = 0
KDO1 171941Z 17009KT 20/04 A2966 RMK A01 T02010042  RH  035%=      5-min Rain = 0
KDO1 171942Z 17009KT 20/04 A2966 RMK A01 T02010041  RH  035%=      5-min Rain = 0
KDO1 171943Z 17009KT 20/04 A2966 RMK A01 T02010041  RH  035%=      5-min Rain = 0
KDO1 171944Z 16008KT 20/04 A2966 RMK A01 T02010043  RH  035%=      5-min Rain = 0
KDO1 171945Z 17009KT 20/04 A2966 RMK A01 T02010042  RH  035%=      5-min Rain = 0
KDO1 171946Z 19009KT 20/04 A2966 RMK A01 T02010044  RH  035%=      5-min Rain = 0
KDO1 171947Z 20009KT 20/04 A2966 RMK A01 T02020043  RH  035%=      5-min Rain = 0
KDO1 171948Z 19013KT 20/04 A2966 RMK A01 T02020041  RH  035%=      5-min Rain = 0
KDO1 171949Z 18008KT 20/04 A2966 RMK A01 T02010040  RH  034%=      5-min Rain = 0
KDO1 171950Z 19006KT 20/04 A2966 RMK A01 T02000038  RH  034%=      5-min Rain = 0
KDO1 171951Z 18007KT 20/04 A2966 RMK A01 T02010041  RH  035%=      5-min Rain = 0
KDO1 171952Z 17011KT 20/04 A2966 RMK A01 T02020041  RH  035%=      5-min Rain = 0
KDO1 171953Z 16009KT 20/04 A2966 RMK A01 T02030040  RH  034%=      5-min Rain = 0
KDO1 171954Z 17012KT 20/04 A2966 RMK A01 T02030040  RH  034%=      5-min Rain = 0
KDO1 171955Z 16009KT 20/04 A2966 RMK A01 T02030038  RH  034%=      5-min Rain = 0
KDO1 171956Z 16011KT 20/04 A2966 RMK A01 T02030037  RH  034%=      5-min Rain = 0
KDO1 171957Z 17012KT 20/04 A2966 RMK A01 T02020039  RH  034%=      5-min Rain = 0
KDO1 171958Z 18011KT 20/04 A2966 RMK A01 T02030039  RH  034%=      5-min Rain = 0
KDO1 171959Z 18012KT 20/04 A2966 RMK A01 T02040038  RH  033%=      5-min Rain = 0
KDO1 172000Z 18009KT 20/04 A2966 RMK A01 T02030036  RH  033%=      5-min Rain = 0
KDO1 172001Z 18015KT 20/04 A2966 RMK A01 T02020038  RH  034%=      5-min Rain = 0
KDO1 172002Z 18011KT 20/04 A2966 RMK A01 T02020039  RH  034%=      5-min Rain = 0
KDO1 172003Z 18009KT 20/04 A2966 RMK A01 T02020037  RH  034%=      5-min Rain = 0
KDO1 172004Z 18008KT 20/04 A2966 RMK A01 T02010036  RH  033%=      5-min Rain = 0
KDO1 172005Z 16006KT 20/04 A2966 RMK A01 T02010038  RH  034%=      5-min Rain = 0
KDO1 172006Z 16010G16KT 20/04 A2966 RMK A01 T02020039  RH  034%=      5-min Rain = 0
KDO1 172007Z 17011KT 20/03 A2966 RMK A01 T02040034  RH  033%=      5-min Rain = 0
KDO1 172008Z 17012G17KT 20/04 A2966 RMK A01 T02020035  RH  033%=      5-min Rain = 0
KDO1 172009Z 17013KT 20/04 A2966 RMK A01 T02020036  RH  033%=      5-min Rain = 0
KDO1 172010Z 17010KT 20/03 A2966 RMK A01 T02020034  RH  033%=      5-min Rain = 0
KDO1 172011Z 18008KT 20/03 A2966 RMK A01 T02020033  RH  033%=      5-min Rain = 0
KDO1 172012Z 17007KT 20/04 A2966 RMK A01 T02020037  RH  034%=      5-min Rain = 0
KDO1 172013Z 18009KT 20/04 A2965 RMK A01 T02030037  RH  033%=      5-min Rain = 0
KDO1 172014Z 18012KT 20/04 A2965 RMK A01 T02040039  RH  034%=      5-min Rain = 0
KDO1 172015Z 17008KT 21/04 A2965 RMK A01 T02050036  RH  033%=      5-min Rain = 0
KDO1 172016Z 18006KT 21/04 A2965 RMK A01 T02060036  RH  033%=      5-min Rain = 0
KDO1 172017Z 19009KT 21/04 A2965 RMK A01 T02060038  RH  033%=      5-min Rain = 0
KDO1 172018Z 18009KT 21/04 A2965 RMK A01 T02070038  RH  033%=      5-min Rain = 0
KDO1 172019Z 17006KT 21/04 A2965 RMK A01 T02070036  RH  032%=      5-min Rain = 0
KDO1 172020Z 17010KT 21/04 A2965 RMK A01 T02070035  RH  032%=      5-min Rain = 0
KDO1 172021Z 16012KT 21/03 A2965 RMK A01 T02070034  RH  032%=      5-min Rain = 0
KDO1 172022Z 17011KT 21/03 A2965 RMK A01 T02070033  RH  032%=      5-min Rain = 0
KDO1 172023Z 16013KT 21/03 A2965 RMK A01 T02070034  RH  032%=      5-min Rain = 0
KDO1 172024Z 16012KT 21/03 A2965 RMK A01 T02070031  RH  031%=      5-min Rain = 0
KDO1 172025Z 18014KT 21/03 A2965 RMK A01 T02060030  RH  031%=      5-min Rain = 0
KDO1 172026Z 19012KT 21/03 A2965 RMK A01 T02060032  RH  032%=      5-min Rain = 0
KDO1 172027Z 20010KT 21/03 A2965 RMK A01 T02050032  RH  032%=      5-min Rain = 0
KDO1 172028Z 19008KT 21/03 A2965 RMK A01 T02050034  RH  032%=      5-min Rain = 0
KDO1 172029Z 17009G14KT 21/04 A2965 RMK A01 T02070039  RH  033%=      5-min Rain = 0
KDO1 172030Z 18011KT 21/04 A2965 RMK A01 T02090040  RH  033%=      5-min Rain = 0
KDO1 172031Z 17010KT 21/04 A2965 RMK A01 T02100037  RH  032%=      5-min Rain = 0
KDO1 172032Z 17010KT 21/04 A2965 RMK A01 T02100035  RH  031%=      5-min Rain = 0
KDO1 172033Z 16009KT 21/03 A2965 RMK A01 T02090033  RH  031%=      5-min Rain = 0
KDO1 172034Z 15008KT 21/03 A2965 RMK A01 T02080033  RH  031%=      5-min Rain = 0
KDO1 172035Z 16007KT 21/03 A2965 RMK A01 T02070032  RH  031%=      5-min Rain = 0
KDO1 172036Z 16010KT 21/03 A2965 RMK A01 T02070034  RH  032%=      5-min Rain = 0
KDO1 172037Z 17008KT 21/03 A2965 RMK A01 T02080031  RH  031%=      5-min Rain = 0
KDO1 172038Z 16010KT 21/04 A2965 RMK A01 T02080036  RH  032%=      5-min Rain = 0
KDO1 172039Z 17007KT 21/03 A2965 RMK A01 T02100034  RH  031%=      5-min Rain = 0
KDO1 172040Z 17007KT 21/03 A2965 RMK A01 T02110034  RH  031%=      5-min Rain = 0
KDO1 172041Z 16007KT 21/03 A2965 RMK A01 T02120031  RH  030%=      5-min Rain = 0
KDO1 172042Z 16008KT 21/03 A2965 RMK A01 T02120028  RH  030%=      5-min Rain = 0
KDO1 172043Z 16010KT 21/03 A2965 RMK A01 T02100030  RH  030%=      5-min Rain = 0
KDO1 172044Z 15007KT 21/03 A2965 RMK A01 T02100031  RH  031%=      5-min Rain = 0
KDO1 172045Z 18007KT 21/03 A2965 RMK A01 T02100032  RH  031%=      5-min Rain = 0
KDO1 172046Z 18007KT 21/03 A2965 RMK A01 T02100032  RH  031%=      5-min Rain = 0
KDO1 172047Z 15009KT 21/03 A2965 RMK A01 T02110034  RH  031%=      5-min Rain = 0
KDO1 172048Z 15011KT 21/03 A2965 RMK A01 T02120031  RH  030%=      5-min Rain = 0
KDO1 172049Z 15010KT 21/03 A2965 RMK A01 T02130030  RH  030%=      5-min Rain = 0
KDO1 172050Z 16013KT 21/03 A2965 RMK A01 T02130030  RH  030%=      5-min Rain = 0
KDO1 172051Z 16011KT 21/03 A2965 RMK A01 T02120026  RH  029%=      5-min Rain = 0
KDO1 172052Z 15012KT 21/03 A2965 RMK A01 T02100027  RH  030%=      5-min Rain = 0
KDO1 172053Z 16010KT 21/03 A2965 RMK A01 T02100026  RH  030%=      5-min Rain = 0
KDO1 172054Z 16008G13KT 21/03 A2965 RMK A01 T02090026  RH  030%=      5-min Rain = 0
KDO1 172055Z 15013KT 21/03 A2965 RMK A01 T02090025  RH  030%=      5-min Rain = 0
KDO1 172056Z 15014KT 21/03 A2965 RMK A01 T02100027  RH  030%=      5-min Rain = 0
KDO1 172057Z 15013KT 21/03 A2965 RMK A01 T02100026  RH  030%=      5-min Rain = 0
KDO1 172058Z 15010KT 21/03 A2965 RMK A01 T02100026  RH  030%=      5-min Rain = 0
KDO1 172059Z 15009KT 21/03 A2965 RMK A01 T02100026  RH  030%=      5-min Rain = 0
KDO1 172100Z 17010KT 21/03 A2965 RMK A01 T02100028  RH  030%=      5-min Rain = 0
KDO1 172101Z 17010KT 21/03 A2965 RMK A01 T02110030  RH  030%=      5-min Rain = 0
KDO1 172102Z 16010KT 21/03 A2965 RMK A01 T02130027  RH  029%=      5-min Rain = 0
KDO1 172103Z 17008KT 21/02 A2965 RMK A01 T02120024  RH  029%=      5-min Rain = 0
KDO1 172104Z 18009KT 21/03 A2965 RMK A01 T02110028  RH  030%=      5-min Rain = 0
KDO1 172105Z 19007KT 21/03 A2965 RMK A01 T02110028  RH  030%=      5-min Rain = 0
KDO1 172106Z 18010G16KT 21/03 A2965 RMK A01 T02120033  RH  031%=      5-min Rain = 0
KDO1 172107Z 18011KT 21/03 A2965 RMK A01 T02130033  RH  030%=      5-min Rain = 0
KDO1 172108Z 18012KT 21/03 A2965 RMK A01 T02140031  RH  030%=      5-min Rain = 0
KDO1 172109Z 18011KT 21/03 A2965 RMK A01 T02130030  RH  030%=      5-min Rain = 0
KDO1 172110Z 18011KT 21/03 A2965 RMK A01 T02130028  RH  030%=      5-min Rain = 0
KDO1 172111Z 19013KT 21/03 A2965 RMK A01 T02130026  RH  029%=      5-min Rain = 0
KDO1 172112Z 20012KT 21/03 A2965 RMK A01 T02120025  RH  029%=      5-min Rain = 0
KDO1 172113Z 19010KT 21/02 A2965 RMK A01 T02110024  RH  029%=      5-min Rain = 0
KDO1 172114Z 18009KT 21/03 A2965 RMK A01 T02110028  RH  030%=      5-min Rain = 0
KDO1 172115Z 16006KT 21/03 A2965 RMK A01 T02120027  RH  030%=      5-min Rain = 0
KDO1 172116Z 16008KT 21/03 A2965 RMK A01 T02130027  RH  029%=      5-min Rain = 0
KDO1 172117Z 15006KT 21/03 A2965 RMK A01 T02140025  RH  029%=      5-min Rain = 0
KDO1 172118Z 14007KT 21/02 A2965 RMK A01 T02140024  RH  028%=      5-min Rain = 0
KDO1 172119Z 16006KT 21/02 A2965 RMK A01 T02140023  RH  028%=      5-min Rain = 0
KDO1 172120Z 18008KT 21/03 A2965 RMK A01 T02140026  RH  029%=      5-min Rain = 0
KDO1 172121Z 17010KT 22/03 A2965 RMK A01 T02150027  RH  029%=      5-min Rain = 0
KDO1 172122Z 17011KT 22/02 A2965 RMK A01 T02150023  RH  028%=      5-min Rain = 0
KDO1 172123Z 18010KT 22/02 A2965 RMK A01 T02150022  RH  028%=      5-min Rain = 0
KDO1 172124Z 17010KT 21/02 A2965 RMK A01 T02140023  RH  028%=      5-min Rain = 0
KDO1 172125Z 16008KT 21/02 A2965 RMK A01 T02140023  RH  028%=      5-min Rain = 0
KDO1 172126Z 15007KT 21/02 A2964 RMK A01 T02140022  RH  028%=      5-min Rain = 0
KDO1 172127Z 15005KT 21/02 A2964 RMK A01 T02140023  RH  028%=      5-min Rain = 0
KDO1 172128Z 14007KT 21/02 A2964 RMK A01 T02140024  RH  028%=      5-min Rain = 0
KDO1 172129Z 14009KT 22/02 A2964 RMK A01 T02160023  RH  028%=      5-min Rain = 0
KDO1 172130Z 15008G13KT 22/02 A2964 RMK A01 T02160022  RH  028%=      5-min Rain = 0
KDO1 172131Z 16013KT 22/02 A2964 RMK A01 T02160023  RH  028%=      5-min Rain = 0
KDO1 172132Z 16012KT 22/02 A2964 RMK A01 T02160017  RH  027%=      5-min Rain = 0
KDO1 172133Z 17010KT 21/02 A2964 RMK A01 T02140015  RH  027%=      5-min Rain = 0
KDO1 172134Z 17007KT 21/01 A2964 RMK A01 T02120014  RH  027%=      5-min Rain = 0
KDO1 172135Z 17008KT 21/02 A2964 RMK A01 T02120017  RH  027%=      5-min Rain = 0
KDO1 172136Z 17008KT 21/02 A2964 RMK A01 T02130018  RH  027%=      5-min Rain = 0
KDO1 172137Z 17008KT 21/02 A2964 RMK A01 T02130018  RH  027%=      5-min Rain = 0
KDO1 172138Z 17006KT 21/02 A2964 RMK A01 T02140019  RH  027%=      5-min Rain = 0
KDO1 172139Z 18009KT 22/02 A2964 RMK A01 T02150022  RH  028%=      5-min Rain = 0
KDO1 172140Z 17007KT 22/02 A2964 RMK A01 T02160020  RH  027%=      5-min Rain = 0
KDO1 172141Z 18009KT 22/02 A2964 RMK A01 T02170022  RH  028%=      5-min Rain = 0
KDO1 172142Z 17008KT 22/03 A2964 RMK A01 T02170026  RH  028%=      5-min Rain = 0
KDO1 172143Z 17010KT 22/03 A2964 RMK A01 T02180027  RH  028%=      5-min Rain = 0
KDO1 172144Z 18010KT 22/02 A2964 RMK A01 T02190024  RH  028%=      5-min Rain = 0
KDO1 172145Z 18011G16KT 22/02 A2964 RMK A01 T02190022  RH  027%=      5-min Rain = 0
KDO1 172146Z 15014KT 22/02 A2964 RMK A01 T02190023  RH  027%=      5-min Rain = 0
KDO1 172147Z 15010KT 22/02 A2964 RMK A01 T02180020  RH  027%=      5-min Rain = 0
KDO1 172148Z 15013KT 22/02 A2964 RMK A01 T02180021  RH  027%=      5-min Rain = 0
KDO1 172149Z 16010KT 22/02 A2964 RMK A01 T02180017  RH  027%=      5-min Rain = 0
KDO1 172150Z 18009KT 22/02 A2964 RMK A01 T02170017  RH  027%=      5-min Rain = 0
KDO1 172151Z 16009KT 22/02 A2964 RMK A01 T02160017  RH  027%=      5-min Rain = 0
KDO1 172152Z 17012KT 22/02 A2964 RMK A01 T02160017  RH  027%=      5-min Rain = 0
KDO1 172153Z 16012KT 22/02 A2964 RMK A01 T02170018  RH  027%=      5-min Rain = 0
KDO1 172154Z 16012KT 22/02 A2964 RMK A01 T02170017  RH  027%=      5-min Rain = 0
KDO1 172155Z 16013KT 22/02 A2964 RMK A01 T02170018  RH  027%=      5-min Rain = 0
KDO1 172156Z 16012KT 22/02 A2964 RMK A01 T02170017  RH  027%=      5-min Rain = 0
KDO1 172157Z 15010KT 22/02 A2964 RMK A01 T02160016  RH  027%=      5-min Rain = 0
KDO1 172158Z 15006KT 22/02 A2964 RMK A01 T02160018  RH  027%=      5-min Rain = 0
KDO1 172159Z 16006KT 22/02 A2964 RMK A01 T02170020  RH  027%=      5-min Rain = 0
KDO1 172200Z 15008KT 22/02 A2964 RMK A01 T02180020  RH  027%=      5-min Rain = 0
KDO1 172201Z 16010KT 22/02 A2964 RMK A01 T02190020  RH  027%=      5-min Rain = 0
KDO1 172202Z 16008KT 22/02 A2964 RMK A01 T02200019  RH  026%=      5-min Rain = 0
KDO1 172203Z 15012KT 22/02 A2964 RMK A01 T02200016  RH  026%=      5-min Rain = 0
KDO1 172204Z 14011KT 22/01 A2964 RMK A01 T02180014  RH  026%=      5-min Rain = 0
KDO1 172205Z 15012KT 22/01 A2964 RMK A01 T02170014  RH  026%=      5-min Rain = 0
KDO1 172206Z 16011KT 22/01 A2964 RMK A01 T02170014  RH  026%=      5-min Rain = 0
KDO1 172207Z 17009KT 22/01 A2964 RMK A01 T02160012  RH  026%=      5-min Rain = 0
KDO1 172208Z 14007KT 22/01 A2964 RMK A01 T02150012  RH  026%=      5-min Rain = 0
KDO1 172209Z 14009KT 22/02 A2964 RMK A01 T02150015  RH  027%=      5-min Rain = 0
KDO1 172210Z 14010KT 22/02 A2964 RMK A01 T02170015  RH  026%=      5-min Rain = 0
KDO1 172211Z 14009KT 22/02 A2964 RMK A01 T02170016  RH  026%=      5-min Rain = 0
KDO1 172212Z 13011KT 22/02 A2964 RMK A01 T02180015  RH  026%=      5-min Rain = 0
KDO1 172213Z 14010KT 22/01 A2964 RMK A01 T02180013  RH  026%=      5-min Rain = 0
KDO1 172214Z 14009KT 22/01 A2964 RMK A01 T02170012  RH  026%=      5-min Rain = 0
KDO1 172215Z 16007KT 22/01 A2964 RMK A01 T02170014  RH  026%=      5-min Rain = 0
KDO1 172216Z 17008KT 22/02 A2964 RMK A01 T02180015  RH  026%=      5-min Rain = 0
KDO1 172217Z 17011KT 22/02 A2964 RMK A01 T02190016  RH  026%=      5-min Rain = 0
KDO1 172218Z 16012KT 22/01 A2964 RMK A01 T02190014  RH  026%=      5-min Rain = 0
KDO1 172219Z 18011KT 22/02 A2964 RMK A01 T02190015  RH  026%=      5-min Rain = 0
KDO1 172220Z 18008KT 22/01 A2964 RMK A01 T02180014  RH  026%=      5-min Rain = 0
KDO1 172221Z 14008KT 22/02 A2964 RMK A01 T02170016  RH  026%=      5-min Rain = 0
KDO1 172222Z 13011KT 22/01 A2964 RMK A01 T02180013  RH  026%=      5-min Rain = 0
KDO1 172223Z 13011KT 22/01 A2964 RMK A01 T02180012  RH  026%=      5-min Rain = 0
KDO1 172224Z 14010KT 22/01 A2964 RMK A01 T02170011  RH  026%=      5-min Rain = 0
KDO1 172225Z 14009KT 22/01 A2964 RMK A01 T02170011  RH  025%=      5-min Rain = 0
KDO1 172226Z 13010KT 22/01 A2964 RMK A01 T02170012  RH  026%=      5-min Rain = 0
KDO1 172227Z 13011KT 22/01 A2963 RMK A01 T02170010  RH  025%=      5-min Rain = 0
KDO1 172228Z 12009KT 22/01 A2963 RMK A01 T02150008  RH  025%=      5-min Rain = 0
KDO1 172229Z 12014KT 22/01 A2963 RMK A01 T02150009  RH  025%=      5-min Rain = 0
KDO1 172230Z 13012KT 22/01 A2963 RMK A01 T02150009  RH  025%=      5-min Rain = 0
KDO1 172231Z 13011KT 21/01 A2963 RMK A01 T02140010  RH  026%=      5-min Rain = 0
KDO1 172232Z 13011KT 21/01 A2963 RMK A01 T02140010  RH  026%=      5-min Rain = 0
KDO1 172233Z 13011KT 22/01 A2963 RMK A01 T02150009  RH  025%=      5-min Rain = 0
KDO1 172234Z 12010KT 22/01 A2963 RMK A01 T02150008  RH  025%=      5-min Rain = 0
KDO1 172235Z 12009KT 22/01 A2963 RMK A01 T02150010  RH  026%=      5-min Rain = 0
KDO1 172236Z 12010KT 22/01 A2963 RMK A01 T02150010  RH  026%=      5-min Rain = 0
KDO1 172237Z 12008KT 22/01 A2963 RMK A01 T02150008  RH  025%=      5-min Rain = 0
KDO1 172238Z 12009KT 22/01 A2963 RMK A01 T02150008  RH  025%=      5-min Rain = 0
KDO1 172239Z 12008KT 22/01 A2963 RMK A01 T02150008  RH  025%=      5-min Rain = 0
KDO1 172240Z 13009KT 21/01 A2963 RMK A01 T02140007  RH  025%=      5-min Rain = 0
KDO1 172241Z 14011KT 21/01 A2963 RMK A01 T02140007  RH  025%=      5-min Rain = 0
KDO1 172242Z 15011KT 21/01 A2963 RMK A01 T02140009  RH  026%=      5-min Rain = 0
KDO1 172243Z 14012G17KT 21/01 A2963 RMK A01 T02140009  RH  026%=      5-min Rain = 0
KDO1 172244Z 13014KT 21/01 A2963 RMK A01 T02140008  RH  025%=      5-min Rain = 0
KDO1 172245Z 13011KT 21/01 A2963 RMK A01 T02140007  RH  025%=      5-min Rain = 0
KDO1 172246Z 13012KT 21/01 A2963 RMK A01 T02140007  RH  025%=      5-min Rain = 0
KDO1 172247Z 13010KT 21/01 A2963 RMK A01 T02130007  RH  025%=      5-min Rain = 0
KDO1 172248Z 13012KT 21/01 A2963 RMK A01 T02130007  RH  025%=      5-min Rain = 0
KDO1 172249Z 13011KT 21/01 A2963 RMK A01 T02130006  RH  025%=      5-min Rain = 0
KDO1 172250Z 13011KT 21/01 A2963 RMK A01 T02130006  RH  025%=      5-min Rain = 0
KDO1 172251Z 14010KT 21/01 A2963 RMK A01 T02130007  RH  025%=      5-min Rain = 0
KDO1 172252Z 13009KT 21/01 A2963 RMK A01 T02130008  RH  026%=      5-min Rain = 0
KDO1 172253Z 13011KT 21/01 A2963 RMK A01 T02140008  RH  026%=      5-min Rain = 0
KDO1 172254Z 12012KT 21/01 A2963 RMK A01 T02140007  RH  025%=      5-min Rain = 0
KDO1 172255Z 12010KT 21/01 A2963 RMK A01 T02140006  RH  025%=      5-min Rain = 0
KDO1 172256Z 12011KT 21/01 A2963 RMK A01 T02140007  RH  025%=      5-min Rain = 0
KDO1 172257Z 13010KT 21/01 A2963 RMK A01 T02130006  RH  025%=      5-min Rain = 0
KDO1 172258Z 13011KT 21/01 A2963 RMK A01 T02130007  RH  025%=      5-min Rain = 0
KDO1 172259Z 14012KT 21/01 A2963 RMK A01 T02130006  RH  025%=      5-min Rain = 0
KDO1 172300Z 13010KT 21/01 A2963 RMK A01 T02130006  RH  025%=      5-min Rain = 0
KDO1 172301Z 14012KT 21/01 A2963 RMK A01 T02130005  RH  025%=      5-min Rain = 0
KDO1 172302Z 14011KT 21/01 A2964 RMK A01 T02120005  RH  025%=      5-min Rain = 0
KDO1 172303Z 15012KT 21/01 A2964 RMK A01 T02120006  RH  025%=      5-min Rain = 0
KDO1 172304Z 15010KT 21/01 A2964 RMK A01 T02120006  RH  025%=      5-min Rain = 0
KDO1 172305Z 15012KT 21/01 A2964 RMK A01 T02120008  RH  026%=      5-min Rain = 0
KDO1 172306Z 15011KT 21/01 A2964 RMK A01 T02120006  RH  025%=      5-min Rain = 0
KDO1 172307Z 14009KT 21/01 A2964 RMK A01 T02110006  RH  026%=      5-min Rain = 0
KDO1 172308Z 15010KT 21/01 A2964 RMK A01 T02110006  RH  026%=      5-min Rain = 0
KDO1 172309Z 15009KT 21/01 A2964 RMK A01 T02110005  RH  025%=      5-min Rain = 0
KDO1 172310Z 14010KT 21/01 A2964 RMK A01 T02100007  RH  026%=      5-min Rain = 0
KDO1 172311Z 14009KT 21/01 A2964 RMK A01 T02100006  RH  026%=      5-min Rain = 0
KDO1 172312Z 14011KT 21/01 A2964 RMK A01 T02110007  RH  026%=      5-min Rain = 0
KDO1 172313Z 14011KT 21/00 A2964 RMK A01 T02100004  RH  025%=      5-min Rain = 0
KDO1 172314Z 14008KT 21/00 A2964 RMK A01 T02100004  RH  025%=      5-min Rain = 0
KDO1 172315Z 14011KT 21/00 A2964 RMK A01 T02090004  RH  025%=      5-min Rain = 0
KDO1 172316Z 14010KT 21/00 A2964 RMK A01 T02100003  RH  025%=      5-min Rain = 0
KDO1 172317Z 13009KT 21/00 A2964 RMK A01 T02090003  RH  025%=      5-min Rain = 0
KDO1 172318Z 13011KT 21/00 A2964 RMK A01 T02090003  RH  025%=      5-min Rain = 0
KDO1 172319Z 13012KT 21/00 A2964 RMK A01 T02090002  RH  025%=      5-min Rain = 0
KDO1 172320Z 13012KT 21/00 A2964 RMK A01 T02080002  RH  025%=      5-min Rain = 0
KDO1 172321Z 13012KT 21/00 A2964 RMK A01 T02080002  RH  025%=      5-min Rain = 0
KDO1 172322Z 12010KT 21/00 A2964 RMK A01 T02070001  RH  025%=      5-min Rain = 0
KDO1 172323Z 13010KT 21/00 A2964 RMK A01 T02070002  RH  025%=      5-min Rain = 0
KDO1 172324Z 13008KT 21/00 A2964 RMK A01 T02070004  RH  026%=      5-min Rain = 0
KDO1 172325Z 14009KT 21/00 A2964 RMK A01 T02070004  RH  026%=      5-min Rain = 0
KDO1 172326Z 14009KT 21/00 A2964 RMK A01 T02070004  RH  026%=      5-min Rain = 0
KDO1 172327Z 14009KT 21/00 A2964 RMK A01 T02070004  RH  026%=      5-min Rain = 0
KDO1 172328Z 13009KT 21/00 A2964 RMK A01 T02070003  RH  026%=      5-min Rain = 0
KDO1 172329Z 14011KT 21/00 A2964 RMK A01 T02070004  RH  026%=      5-min Rain = 0
KDO1 172330Z 13010KT 21/00 A2964 RMK A01 T02060004  RH  026%=      5-min Rain = 0
KDO1 172331Z 13011KT 21/00 A2964 RMK A01 T02060004  RH  026%=      5-min Rain = 0
KDO1 172332Z 13011KT 21/00 A2964 RMK A01 T02050003  RH  026%=      5-min Rain = 0
KDO1 172333Z 13010KT 21/00 A2964 RMK A01 T02050004  RH  026%=      5-min Rain = 0
KDO1 172334Z 13010KT 21/00 A2964 RMK A01 T02050003  RH  026%=      5-min Rain = 0
KDO1 172335Z 13012KT 21/00 A2964 RMK A01 T02050004  RH  026%=      5-min Rain = 0
KDO1 172336Z 14013KT 20/00 A2964 RMK A01 T02040004  RH  026%=      5-min Rain = 0
KDO1 172337Z 13010KT 20/01 A2964 RMK A01 T02030005  RH  027%=      5-min Rain = 0
KDO1 172338Z 12009KT 20/01 A2964 RMK A01 T02030006  RH  027%=      5-min Rain = 0
KDO1 172339Z 12010KT 20/01 A2964 RMK A01 T02030007  RH  027%=      5-min Rain = 0
KDO1 172340Z 13012KT 20/01 A2964 RMK A01 T02020007  RH  027%=      5-min Rain = 0
KDO1 172341Z 12010KT 20/01 A2964 RMK A01 T02020008  RH  027%=      5-min Rain = 0
KDO1 172342Z 12012KT 20/01 A2964 RMK A01 T02010009  RH  028%=      5-min Rain = 0
KDO1 172343Z 12011KT 20/01 A2964 RMK A01 T02000011  RH  028%=      5-min Rain = 0
KDO1 172344Z 12011KT 20/01 A2964 RMK A01 T02000012  RH  029%=      5-min Rain = 0
KDO1 172345Z 12011KT 20/01 A2964 RMK A01 T01990014  RH  029%=      5-min Rain = 0
KDO1 172346Z 12010KT 20/01 A2964 RMK A01 T01990014  RH  029%=      5-min Rain = 0
KDO1 172347Z 12010KT 20/02 A2964 RMK A01 T01980016  RH  030%=      5-min Rain = 0
KDO1 172348Z 12011KT 20/02 A2964 RMK A01 T01970016  RH  030%=      5-min Rain = 0
KDO1 172349Z 12008KT 20/02 A2964 RMK A01 T01970017  RH  030%=      5-min Rain = 0
KDO1 172350Z 12008KT 20/02 A2964 RMK A01 T01960018  RH  031%=      5-min Rain = 0
KDO1 172351Z 13011KT 20/02 A2964 RMK A01 T01960019  RH  031%=      5-min Rain = 0
KDO1 172352Z 13012KT 20/02 A2964 RMK A01 T01950019  RH  031%=      5-min Rain = 0
KDO1 172353Z 13010KT 19/02 A2964 RMK A01 T01940019  RH  031%=      5-min Rain = 0
KDO1 172354Z 13010KT 19/02 A2964 RMK A01 T01940019  RH  031%=      5-min Rain = 0
KDO1 172355Z 13010KT 19/02 A2964 RMK A01 T01930020  RH  031%=      5-min Rain = 0
KDO1 172356Z 13010KT 19/02 A2964 RMK A01 T01920019  RH  032%=      5-min Rain = 0
KDO1 172357Z 13010KT 19/02 A2964 RMK A01 T01920019  RH  032%=      5-min Rain = 0
KDO1 172358Z 12009KT 19/02 A2964 RMK A01 T01910020  RH  032%=      5-min Rain = 0
KDO1 172359Z 13009KT 19/02 A2964 RMK A01 T01900020  RH  032%=      5-min Rain = 0
KDO1 180000Z 12009KT 19/02 A2965 RMK A01 T01900020  RH  032%=      5-min Rain = 0
KDO1 180001Z 12010KT 19/02 A2965 RMK A01 T01890020  RH  032%=      5-min Rain = 0
KDO1 180002Z 12008KT 19/02 A2965 RMK A01 T01880019  RH  032%=      5-min Rain = 0
KDO1 180003Z 12007KT 19/02 A2965 RMK A01 T01880020  RH  033%=      5-min Rain = 0
KDO1 180004Z 12009KT 19/02 A2965 RMK A01 T01870020  RH  033%=      5-min Rain = 0
KDO1 180005Z 12008KT 19/02 A2965 RMK A01 T01860020  RH  033%=      5-min Rain = 0
KDO1 180006Z 12008KT 19/02 A2965 RMK A01 T01850020  RH  033%=      5-min Rain = 0
KDO1 180007Z 11009KT 19/02 A2965 RMK A01 T01850021  RH  033%=      5-min Rain = 0
KDO1 180008Z 11009KT 18/02 A2965 RMK A01 T01840021  RH  034%=      5-min Rain = 0
KDO1 180009Z 11009KT 18/02 A2965 RMK A01 T01830023  RH  034%=      5-min Rain = 0
KDO1 180010Z 11009KT 18/03 A2965 RMK A01 T01830025  RH  035%=      5-min Rain = 0
KDO1 180011Z 11010KT 18/03 A2965 RMK A01 T01810029  RH  036%=      5-min Rain = 0
KDO1 180012Z 11012KT 18/04 A2965 RMK A01 T01810035  RH  038%=      5-min Rain = 0
KDO1 180013Z 11009KT 18/04 A2965 RMK A01 T01800037  RH  039%=      5-min Rain = 0
KDO1 180014Z 10010KT 18/04 A2965 RMK A01 T01790040  RH  040%=      5-min Rain = 0
KDO1 180015Z 11011KT 18/04 A2965 RMK A01 T01780042  RH  041%=      5-min Rain = 0
KDO1 180016Z 11010KT 18/04 A2965 RMK A01 T01770044  RH  041%=      5-min Rain = 0
KDO1 180017Z 11010KT 18/05 A2965 RMK A01 T01760045  RH  042%=      5-min Rain = 0
KDO1 180018Z 11010KT 18/05 A2965 RMK A01 T01750045  RH  042%=      5-min Rain = 0
KDO1 180019Z 11009KT 17/05 A2965 RMK A01 T01740046  RH  043%=      5-min Rain = 0
KDO1 180020Z 11009KT 17/05 A2965 RMK A01 T01730046  RH  043%=      5-min Rain = 0
KDO1 180021Z 11009KT 17/05 A2965 RMK A01 T01730047  RH  043%=      5-min Rain = 0
KDO1 180022Z 11008KT 17/05 A2965 RMK A01 T01710047  RH  044%=      5-min Rain = 0
KDO1 180023Z 11009KT 17/05 A2965 RMK A01 T01700047  RH  044%=      5-min Rain = 0
KDO1 180024Z 11007KT 17/05 A2965 RMK A01 T01690047  RH  044%=      5-min Rain = 0
KDO1 180025Z 11009KT 17/05 A2965 RMK A01 T01680047  RH  045%=      5-min Rain = 0
KDO1 180026Z 11008KT 17/05 A2965 RMK A01 T01670048  RH  045%=      5-min Rain = 0
KDO1 180027Z 11008KT 17/05 A2966 RMK A01 T01660048  RH  045%=      5-min Rain = 0
KDO1 180028Z 11008KT 17/05 A2966 RMK A01 T01650048  RH  046%=      5-min Rain = 0
KDO1 180029Z 11007KT 16/05 A2966 RMK A01 T01640048  RH  046%=      5-min Rain = 0
KDO1 180030Z 10008KT 16/05 A2966 RMK A01 T01630048  RH  046%=      5-min Rain = 0
KDO1 180031Z 10008KT 16/05 A2966 RMK A01 T01620048  RH  047%=      5-min Rain = 0
KDO1 180032Z 10008KT 16/05 A2966 RMK A01 T01610049  RH  047%=      5-min Rain = 0
KDO1 180033Z 10009KT 16/05 A2966 RMK A01 T01600049  RH  048%=      5-min Rain = 0
KDO1 180034Z 10009KT 16/05 A2966 RMK A01 T01600049  RH  048%=      5-min Rain = 0
KDO1 180035Z 11010KT 16/05 A2966 RMK A01 T01600050  RH  048%=      5-min Rain = 0
KDO1 180036Z 11010KT 16/05 A2966 RMK A01 T01590050  RH  048%=      5-min Rain = 0
KDO1 180037Z 11010KT 16/05 A2966 RMK A01 T01580050  RH  048%=      5-min Rain = 0
KDO1 180038Z 11010KT 16/05 A2966 RMK A01 T01580050  RH  049%=      5-min Rain = 0
KDO1 180039Z 11011KT 16/05 A2966 RMK A01 T01580050  RH  049%=      5-min Rain = 0
KDO1 180040Z 11010KT 16/05 A2966 RMK A01 T01580050  RH  049%=      5-min Rain = 0
KDO1 180041Z 11011KT 16/05 A2966 RMK A01 T01580051  RH  049%=      5-min Rain = 0
KDO1 180042Z 11010KT 16/05 A2966 RMK A01 T01580051  RH  049%=      5-min Rain = 0
KDO1 180043Z 11011KT 16/05 A2966 RMK A01 T01580051  RH  049%=      5-min Rain = 0
KDO1 180044Z 11010KT 16/05 A2966 RMK A01 T01570052  RH  049%=      5-min Rain = 0
KDO1 180045Z 11009KT 16/05 A2966 RMK A01 T01570052  RH  049%=      5-min Rain = 0
KDO1 180046Z 11010KT 16/05 A2966 RMK A01 T01570052  RH  050%=      5-min Rain = 0
KDO1 180047Z 11008KT 16/05 A2966 RMK A01 T01560051  RH  050%=      5-min Rain = 0
KDO1 180048Z 11009KT 16/05 A2966 RMK A01 T01550051  RH  050%=      5-min Rain = 0
KDO1 180049Z 11008KT 16/05 A2966 RMK A01 T01550052  RH  050%=      5-min Rain = 0
KDO1 180050Z 11008KT 15/05 A2966 RMK A01 T01540051  RH  050%=      5-min Rain = 0
KDO1 180051Z 10007KT 15/05 A2966 RMK A01 T01530052  RH  051%=      5-min Rain = 0
KDO1 180052Z 11008KT 15/05 A2967 RMK A01 T01520051  RH  051%=      5-min Rain = 0
KDO1 180053Z 10008KT 15/05 A2967 RMK A01 T01510052  RH  051%=      5-min Rain = 0
KDO1 180054Z 10008KT 15/05 A2967 RMK A01 T01510053  RH  052%=      5-min Rain = 0
KDO1 180055Z 11007KT 15/05 A2967 RMK A01 T01500052  RH  052%=      5-min Rain = 0
KDO1 180056Z 10007KT 15/05 A2967 RMK A01 T01490052  RH  052%=      5-min Rain = 0
KDO1 180057Z 11008KT 15/05 A2967 RMK A01 T01490052  RH  052%=      5-min Rain = 0
KDO1 180058Z 10008KT 15/05 A2967 RMK A01 T01480052  RH  053%=      5-min Rain = 0
KDO1 180059Z 11008KT 15/05 A2967 RMK A01 T01480053  RH  053%=      5-min Rain = 0
KDO1 180100Z 11008KT 15/05 A2967 RMK A01 T01480053  RH  053%=      5-min Rain = 0
KDO1 180101Z 10007KT 15/05 A2967 RMK A01 T01470053  RH  053%=      5-min Rain = 0
KDO1 180102Z 11008KT 15/05 A2967 RMK A01 T01470053  RH  053%=      5-min Rain = 0
KDO1 180103Z 10008KT 15/05 A2967 RMK A01 T01460053  RH  054%=      5-min Rain = 0
KDO1 180104Z 10007KT 15/05 A2967 RMK A01 T01460053  RH  054%=      5-min Rain = 0
KDO1 180105Z 10008KT 15/05 A2967 RMK A01 T01460053  RH  054%=      5-min Rain = 0
KDO1 180106Z 10008KT 15/05 A2967 RMK A01 T01450053  RH  054%=      5-min Rain = 0
KDO1 180107Z 10008KT 14/05 A2967 RMK A01 T01440053  RH  054%=      5-min Rain = 0
KDO1 180108Z 10007KT 14/05 A2967 RMK A01 T01440053  RH  054%=      5-min Rain = 0
KDO1 180109Z 10007KT 14/05 A2967 RMK A01 T01440053  RH  054%=      5-min Rain = 0
KDO1 180110Z 10007KT 14/05 A2967 RMK A01 T01440053  RH  055%=      5-min Rain = 0
KDO1 180111Z 10007KT 14/05 A2967 RMK A01 T01430053  RH  055%=      5-min Rain = 0
KDO1 180112Z 10007KT 14/05 A2967 RMK A01 T01420053  RH  055%=      5-min Rain = 0
KDO1 180113Z 10006KT 14/05 A2967 RMK A01 T01420053  RH  055%=      5-min Rain = 0
KDO1 180114Z 10007KT 14/05 A2967 RMK A01 T01410053  RH  055%=      5-min Rain = 0
KDO1 180115Z 10007KT 14/05 A2967 RMK A01 T01410053  RH  055%=      5-min Rain = 0
KDO1 180116Z 10007KT 14/05 A2967 RMK A01 T01400053  RH  056%=      5-min Rain = 0
KDO1 180117Z 11007KT 14/05 A2967 RMK A01 T01400053  RH  056%=      5-min Rain = 0
KDO1 180118Z 11006KT 14/05 A2967 RMK A01 T01400053  RH  056%=      5-min Rain = 0
KDO1 180119Z 11006KT 14/05 A2967 RMK A01 T01390053  RH  056%=      5-min Rain = 0
KDO1 180120Z 11006KT 14/05 A2967 RMK A01 T01390053  RH  056%=      5-min Rain = 0
KDO1 180121Z 11006KT 14/05 A2967 RMK A01 T01380053  RH  056%=      5-min Rain = 0
KDO1 180122Z 11007KT 14/05 A2967 RMK A01 T01380053  RH  056%=      5-min Rain = 0
KDO1 180123Z 11006KT 14/05 A2967 RMK A01 T01370053  RH  057%=      5-min Rain = 0
KDO1 180124Z 11006KT 14/05 A2967 RMK A01 T01370053  RH  057%=      5-min Rain = 0
KDO1 180125Z 11005KT 14/05 A2967 RMK A01 T01370053  RH  057%=      5-min Rain = 0
KDO1 180126Z 11006KT 14/05 A2967 RMK A01 T01360053  RH  057%=      5-min Rain = 0
KDO1 180127Z 11005KT 14/05 A2967 RMK A01 T01350053  RH  058%=      5-min Rain = 0
KDO1 180128Z 11005KT 14/05 A2967 RMK A01 T01350053  RH  058%=      5-min Rain = 0
KDO1 180129Z 10006KT 14/05 A2968 RMK A01 T01350054  RH  058%=      5-min Rain = 0
KDO1 180130Z 10005KT 14/05 A2968 RMK A01 T01350054  RH  058%=      5-min Rain = 0
KDO1 180131Z 11005KT 14/05 A2968 RMK A01 T01350054  RH  058%=      5-min Rain = 0
KDO1 180132Z 10005KT 13/05 A2968 RMK A01 T01340054  RH  058%=      5-min Rain = 0
KDO1 180133Z 10005KT 13/05 A2968 RMK A01 T01340054  RH  058%=      5-min Rain = 0
KDO1 180134Z 10005KT 13/05 A2968 RMK A01 T01330054  RH  059%=      5-min Rain = 0
KDO1 180135Z 10005KT 13/05 A2968 RMK A01 T01330054  RH  059%=      5-min Rain = 0
KDO1 180136Z 10005KT 13/06 A2968 RMK A01 T01340055  RH  059%=      5-min Rain = 0
KDO1 180137Z 10005KT 13/05 A2968 RMK A01 T01330054  RH  059%=      5-min Rain = 0
KDO1 180138Z 10005KT 13/05 A2968 RMK A01 T01330054  RH  059%=      5-min Rain = 0
KDO1 180139Z 10005KT 13/06 A2968 RMK A01 T01320055  RH  059%=      5-min Rain = 0
KDO1 180140Z 10005KT 13/06 A2968 RMK A01 T01320055  RH  059%=      5-min Rain = 0
KDO1 180141Z 10005KT 13/06 A2968 RMK A01 T01320055  RH  060%=      5-min Rain = 0
KDO1 180142Z 09005KT 13/06 A2968 RMK A01 T01320055  RH  060%=      5-min Rain = 0
KDO1 180143Z 10005KT 13/06 A2968 RMK A01 T01320055  RH  060%=      5-min Rain = 0
KDO1 180144Z 10005KT 13/06 A2968 RMK A01 T01310055  RH  060%=      5-min Rain = 0
KDO1 180145Z 09004KT 13/06 A2968 RMK A01 T01310055  RH  060%=      5-min Rain = 0
KDO1 180146Z 10005KT 13/06 A2968 RMK A01 T01310055  RH  060%=      5-min Rain = 0
KDO1 180147Z 10005KT 13/06 A2968 RMK A01 T01310055  RH  060%=      5-min Rain = 0
KDO1 180148Z 11004KT 13/06 A2968 RMK A01 T01310055  RH  060%=      5-min Rain = 0
KDO1 180149Z 11005KT 13/06 A2968 RMK A01 T01300055  RH  060%=      5-min Rain = 0
KDO1 180150Z 11004KT 13/06 A2968 RMK A01 T01300055  RH  060%=      5-min Rain = 0
KDO1 180151Z 11003KT 13/06 A2968 RMK A01 T01290055  RH  060%=      5-min Rain = 0
KDO1 180152Z 11004KT 13/06 A2968 RMK A01 T01290055  RH  060%=      5-min Rain = 0
KDO1 180153Z 11003KT 13/06 A2968 RMK A01 T01290055  RH  061%=      5-min Rain = 0
KDO1 180154Z 10003KT 13/05 A2968 RMK A01 T01290054  RH  061%=      5-min Rain = 0
KDO1 180155Z 09003KT 13/05 A2968 RMK A01 T01280054  RH  061%=      5-min Rain = 0
KDO1 180156Z 10003KT 13/05 A2968 RMK A01 T01280054  RH  061%=      5-min Rain = 0
KDO1 180157Z 09003KT 13/05 A2968 RMK A01 T01280054  RH  061%=      5-min Rain = 0
KDO1 180158Z 09003KT 13/05 A2968 RMK A01 T01270054  RH  061%=      5-min Rain = 0
KDO1 180159Z 09002KT 13/05 A2968 RMK A01 T01270054  RH  061%=      5-min Rain = 0
KDO1 180200Z 09002KT 13/05 A2968 RMK A01 T01270054  RH  061%=      5-min Rain = 0
KDO1 180201Z 09003KT 13/05 A2968 RMK A01 T01270054  RH  061%=      5-min Rain = 0
KDO1 180202Z 08003KT 13/05 A2968 RMK A01 T01270054  RH  061%=      5-min Rain = 0
KDO1 180203Z 09002KT 13/05 A2969 RMK A01 T01270054  RH  061%=      5-min Rain = 0
KDO1 180204Z 08003KT 13/05 A2969 RMK A01 T01270054  RH  061%=      5-min Rain = 0
KDO1 180205Z 08002KT 13/05 A2969 RMK A01 T01270054  RH  061%=      5-min Rain = 0
KDO1 180206Z 08003KT 13/05 A2969 RMK A01 T01260053  RH  061%=      5-min Rain = 0
KDO1 180207Z 08003KT 13/05 A2969 RMK A01 T01260053  RH  061%=      5-min Rain = 0
KDO1 180208Z 08003KT 13/05 A2969 RMK A01 T01260053  RH  061%=      5-min Rain = 0
KDO1 180209Z 08003KT 13/05 A2969 RMK A01 T01250052  RH  061%=      5-min Rain = 0
KDO1 180210Z 08003KT 13/05 A2969 RMK A01 T01250052  RH  061%=      5-min Rain = 0
KDO1 180211Z 08004KT 13/05 A2969 RMK A01 T01250052  RH  061%=      5-min Rain = 0
KDO1 180212Z 08004KT 12/05 A2969 RMK A01 T01240052  RH  061%=      5-min Rain = 0
KDO1 180213Z 08004KT 12/05 A2969 RMK A01 T01240052  RH  061%=      5-min Rain = 0
KDO1 180214Z 08004KT 12/05 A2969 RMK A01 T01230052  RH  062%=      5-min Rain = 0
KDO1 180215Z 08004KT 12/05 A2969 RMK A01 T01230051  RH  062%=      5-min Rain = 0
KDO1 180216Z 08004KT 12/05 A2969 RMK A01 T01220051  RH  062%=      5-min Rain = 0
KDO1 180217Z 08005KT 12/05 A2969 RMK A01 T01220051  RH  062%=      5-min Rain = 0
KDO1 180218Z 08004KT 12/05 A2969 RMK A01 T01210051  RH  062%=      5-min Rain = 0
KDO1 180219Z 08004KT 12/05 A2969 RMK A01 T01210051  RH  062%=      5-min Rain = 0
KDO1 180220Z 07004KT 12/05 A2969 RMK A01 T01210051  RH  062%=      5-min Rain = 0
KDO1 180221Z 06004KT 12/05 A2969 RMK A01 T01210051  RH  062%=      5-min Rain = 0
KDO1 180222Z 07004KT 12/05 A2969 RMK A01 T01200051  RH  063%=      5-min Rain = 0
KDO1 180223Z 07004KT 12/05 A2969 RMK A01 T01210052  RH  063%=      5-min Rain = 0
KDO1 180224Z 07004KT 12/05 A2969 RMK A01 T01210052  RH  063%=      5-min Rain = 0
KDO1 180225Z 06004KT 12/05 A2969 RMK A01 T01210052  RH  063%=      5-min Rain = 0
KDO1 180226Z 07005KT 12/05 A2969 RMK A01 T01210052  RH  063%=      5-min Rain = 0
KDO1 180227Z 07003KT 12/05 A2969 RMK A01 T01210052  RH  063%=      5-min Rain = 0
KDO1 180228Z 07003KT 12/05 A2969 RMK A01 T01220052  RH  063%=      5-min Rain = 0
KDO1 180229Z 06004KT 12/05 A2969 RMK A01 T01210052  RH  063%=      5-min Rain = 0
KDO1 180230Z 08004KT 12/05 A2969 RMK A01 T01220052  RH  063%=      5-min Rain = 0
KDO1 180231Z 07004KT 12/05 A297 RMK A01 T01210052  RH  063%=      5-min Rain = 0
KDO1 180232Z 06004KT 12/05 A297 RMK A01 T01220053  RH  063%=      5-min Rain = 0
KDO1 180233Z 06004KT 12/05 A297 RMK A01 T01210053  RH  063%=      5-min Rain = 0
KDO1 180234Z 06005KT 12/05 A297 RMK A01 T01210053  RH  063%=      5-min Rain = 0
KDO1 180235Z 06005KT 12/05 A297 RMK A01 T01210053  RH  063%=      5-min Rain = 0
KDO1 180236Z 06004KT 12/05 A297 RMK A01 T01210052  RH  063%=      5-min Rain = 0
KDO1 180237Z 05004KT 12/05 A297 RMK A01 T01210052  RH  063%=      5-min Rain = 0
KDO1 180238Z 04004KT 12/05 A297 RMK A01 T01210052  RH  063%=      5-min Rain = 0
KDO1 180239Z 03004KT 12/05 A297 RMK A01 T01200052  RH  063%=      5-min Rain = 0
KDO1 180240Z 04004KT 12/05 A297 RMK A01 T01190051  RH  063%=      5-min Rain = 0
KDO1 180241Z 03003KT 12/05 A297 RMK A01 T01180051  RH  064%=      5-min Rain = 0
KDO1 180242Z 03004KT 12/05 A297 RMK A01 T01170051  RH  064%=      5-min Rain = 0
KDO1 180243Z 03004KT 12/05 A297 RMK A01 T01160051  RH  064%=      5-min Rain = 0
KDO1 180244Z 04004KT 12/05 A297 RMK A01 T01160051  RH  064%=      5-min Rain = 0
KDO1 180245Z 03004KT 12/05 A297 RMK A01 T01150051  RH  065%=      5-min Rain = 0
KDO1 180246Z 03004KT 12/05 A297 RMK A01 T01150051  RH  065%=      5-min Rain = 0
KDO1 180247Z 04004KT 12/05 A297 RMK A01 T01150051  RH  065%=      5-min Rain = 0
KDO1 180248Z 03004KT 11/05 A2971 RMK A01 T01140051  RH  065%=      5-min Rain = 0
KDO1 180249Z 06005KT 11/05 A2971 RMK A01 T01140051  RH  065%=      5-min Rain = 0
KDO1 180250Z 04004KT 11/05 A2971 RMK A01 T01140052  RH  065%=      5-min Rain = 0
KDO1 180251Z 03004KT 12/05 A2971 RMK A01 T01150052  RH  065%=      5-min Rain = 0
KDO1 180252Z 04004KT 12/05 A2971 RMK A01 T01160052  RH  065%=      5-min Rain = 0
KDO1 180253Z 05005KT 12/05 A2971 RMK A01 T01170053  RH  065%=      5-min Rain = 0
KDO1 180254Z 05004KT 12/05 A2971 RMK A01 T01170053  RH  065%=      5-min Rain = 0
KDO1 180255Z 06004KT 12/05 A2971 RMK A01 T01180053  RH  065%=      5-min Rain = 0
KDO1 180256Z 06005KT 12/05 A2971 RMK A01 T01180053  RH  064%=      5-min Rain = 0
KDO1 180257Z 05004KT 12/05 A2971 RMK A01 T01190054  RH  064%=      5-min Rain = 0
KDO1 180258Z 06005KT 12/05 A2971 RMK A01 T01190053  RH  064%=      5-min Rain = 0
KDO1 180259Z 06005KT 12/05 A2971 RMK A01 T01190054  RH  064%=      5-min Rain = 0
KDO1 180300Z 06005KT 12/05 A2971 RMK A01 T01190054  RH  064%=      5-min Rain = 0
KDO1 180301Z 07005KT 12/05 A2971 RMK A01 T01190054  RH  064%=      5-min Rain = 0
KDO1 180302Z 06004KT 12/05 A2971 RMK A01 T01190053  RH  064%=      5-min Rain = 0
KDO1 180303Z 06005KT 12/05 A2971 RMK A01 T01180053  RH  064%=      5-min Rain = 0
KDO1 180304Z 07004KT 12/05 A2971 RMK A01 T01170054  RH  065%=      5-min Rain = 0
KDO1 180305Z 07004KT 12/05 A2971 RMK A01 T01170053  RH  065%=      5-min Rain = 0
KDO1 180306Z 06004KT 12/05 A2971 RMK A01 T01160053  RH  065%=      5-min Rain = 0
KDO1 180307Z 06004KT 12/05 A2971 RMK A01 T01160053  RH  065%=      5-min Rain = 0
KDO1 180308Z 06004KT 12/05 A2971 RMK A01 T01150052  RH  065%=      5-min Rain = 0
KDO1 180309Z 07004KT 12/05 A2971 RMK A01 T01150052  RH  065%=      5-min Rain = 0
KDO1 180310Z 07004KT 12/05 A2971 RMK A01 T01150053  RH  066%=      5-min Rain = 0
KDO1 180311Z 08004KT 12/05 A2971 RMK A01 T01150053  RH  066%=      5-min Rain = 0
KDO1 180312Z 08004KT 12/05 A2971 RMK A01 T01150053  RH  066%=      5-min Rain = 0
KDO1 180313Z 07004KT 12/05 A2971 RMK A01 T01150053  RH  066%=      5-min Rain = 0
KDO1 180314Z 07005KT 11/05 A2971 RMK A01 T01140053  RH  066%=      5-min Rain = 0
KDO1 180315Z 08005KT 11/05 A2971 RMK A01 T01140053  RH  066%=      5-min Rain = 0
KDO1 180316Z 08005KT 11/05 A2971 RMK A01 T01130052  RH  066%=      5-min Rain = 0
KDO1 180317Z 07005KT 11/05 A2971 RMK A01 T01130052  RH  066%=      5-min Rain = 0
KDO1 180318Z 08004KT 11/05 A2971 RMK A01 T01120052  RH  067%=      5-min Rain = 0
KDO1 180319Z 08005KT 11/05 A2971 RMK A01 T01120053  RH  067%=      5-min Rain = 0
KDO1 180320Z 08005KT 11/05 A2971 RMK A01 T01120053  RH  067%=      5-min Rain = 0
KDO1 180321Z 07004KT 11/05 A2971 RMK A01 T01110053  RH  067%=      5-min Rain = 0
KDO1 180322Z 07004KT 11/05 A2971 RMK A01 T01110053  RH  067%=      5-min Rain = 0
KDO1 180323Z 07003KT 11/05 A2971 RMK A01 T01110052  RH  067%=      5-min Rain = 0
KDO1 180324Z 08004KT 11/05 A2971 RMK A01 T01110053  RH  067%=      5-min Rain = 0
KDO1 180325Z 08004KT 11/05 A2971 RMK A01 T01110053  RH  067%=      5-min Rain = 0
KDO1 180326Z 07003KT 11/05 A2971 RMK A01 T01110053  RH  067%=      5-min Rain = 0
KDO1 180327Z 07004KT 11/05 A2971 RMK A01 T01100053  RH  067%=      5-min Rain = 0
KDO1 180328Z 06003KT 11/05 A2971 RMK A01 T01110053  RH  068%=      5-min Rain = 0
KDO1 180329Z 06004KT 11/05 A2971 RMK A01 T01110053  RH  068%=      5-min Rain = 0
KDO1 180330Z 06004KT 11/05 A2971 RMK A01 T01110053  RH  068%=      5-min Rain = 0
KDO1 180331Z 06004KT 11/05 A2971 RMK A01 T01110053  RH  068%=      5-min Rain = 0
KDO1 180332Z 06005KT 11/05 A2971 RMK A01 T01100053  RH  068%=      5-min Rain = 0
KDO1 180333Z 06004KT 11/05 A2971 RMK A01 T01100054  RH  068%=      5-min Rain = 0
KDO1 180334Z 05005KT 11/05 A2971 RMK A01 T01100054  RH  068%=      5-min Rain = 0
KDO1 180335Z 06004KT 11/05 A2971 RMK A01 T01100054  RH  068%=      5-min Rain = 0
KDO1 180336Z 05004KT 11/05 A2971 RMK A01 T01110054  RH  068%=      5-min Rain = 0
KDO1 180337Z 05004KT 11/05 A2971 RMK A01 T01100054  RH  068%=      5-min Rain = 0
KDO1 180338Z 05004KT 11/05 A2971 RMK A01 T01100054  RH  068%=      5-min Rain = 0
KDO1 180339Z 05004KT 11/05 A2971 RMK A01 T01100053  RH  068%=      5-min Rain = 0
KDO1 180340Z 05004KT 11/05 A2971 RMK A01 T01090053  RH  068%=      5-min Rain = 0
KDO1 180341Z 05004KT 11/05 A2971 RMK A01 T01090053  RH  069%=      5-min Rain = 0
KDO1 180342Z 05004KT 11/05 A2972 RMK A01 T01080053  RH  069%=      5-min Rain = 0
KDO1 180343Z 05004KT 11/05 A2972 RMK A01 T01090054  RH  069%=      5-min Rain = 0
KDO1 180344Z 05005KT 11/05 A2972 RMK A01 T01090053  RH  069%=      5-min Rain = 0
KDO1 180345Z 05005KT 11/05 A2972 RMK A01 T01090053  RH  069%=      5-min Rain = 0
KDO1 180346Z 05004KT 11/05 A2972 RMK A01 T01080053  RH  069%=      5-min Rain = 0
KDO1 180347Z 04004KT 11/05 A2972 RMK A01 T01090054  RH  069%=      5-min Rain = 0
KDO1 180348Z 04004KT 11/05 A2972 RMK A01 T01080053  RH  069%=      5-min Rain = 0
KDO1 180349Z 05005KT 11/05 A2972 RMK A01 T01080053  RH  069%=      5-min Rain = 0
KDO1 180350Z 05005KT 11/05 A2972 RMK A01 T01080053  RH  069%=      5-min Rain = 0
KDO1 180351Z 06005KT 11/05 A2972 RMK A01 T01070053  RH  069%=      5-min Rain = 0
KDO1 180352Z 06005KT 11/05 A2972 RMK A01 T01070054  RH  069%=      5-min Rain = 0
KDO1 180353Z 06005KT 11/05 A2972 RMK A01 T01080054  RH  069%=      5-min Rain = 0
KDO1 180354Z 05005KT 11/05 A2972 RMK A01 T01070054  RH  069%=      5-min Rain = 0
KDO1 180355Z 06005KT 11/05 A2972 RMK A01 T01080054  RH  069%=      5-min Rain = 0
KDO1 180356Z 06006KT 11/05 A2972 RMK A01 T01080054  RH  069%=      5-min Rain = 0
KDO1 180357Z 07005KT 11/05 A2972 RMK A01 T01080054  RH  069%=      5-min Rain = 0
KDO1 180358Z 07006KT 11/05 A2972 RMK A01 T01080054  RH  069%=      5-min Rain = 0
KDO1 180359Z 06006KT 11/05 A2972 RMK A01 T01090054  RH  069%=      5-min Rain = 0
KDO1 180400Z 06005KT 11/05 A2972 RMK A01 T01090054  RH  069%=      5-min Rain = 0
KDO1 180401Z 06005KT 11/05 A2972 RMK A01 T01090054  RH  069%=      5-min Rain = 0
KDO1 180402Z 06005KT 11/05 A2972 RMK A01 T01090054  RH  069%=      5-min Rain = 0
KDO1 180403Z 06005KT 11/05 A2972 RMK A01 T01090054  RH  069%=      5-min Rain = 0
KDO1 180404Z 07004KT 11/05 A2972 RMK A01 T01090054  RH  069%=      5-min Rain = 0
KDO1 180405Z 07005KT 11/05 A2972 RMK A01 T01090054  RH  069%=      5-min Rain = 0
KDO1 180406Z 07004KT 11/05 A2972 RMK A01 T01090054  RH  069%=      5-min Rain = 0
KDO1 180407Z 06003KT 11/05 A2972 RMK A01 T01090054  RH  069%=      5-min Rain = 0
KDO1 180408Z 07004KT 11/05 A2972 RMK A01 T01090054  RH  069%=      5-min Rain = 0
KDO1 180409Z 06004KT 11/05 A2972 RMK A01 T01090054  RH  069%=      5-min Rain = 0
KDO1 180410Z 06004KT 11/05 A2972 RMK A01 T01090054  RH  069%=      5-min Rain = 0
KDO1 180411Z 06004KT 11/05 A2972 RMK A01 T01090054  RH  069%=      5-min Rain = 0
KDO1 180412Z 06003KT 11/05 A2972 RMK A01 T01090054  RH  069%=      5-min Rain = 0
KDO1 180413Z 06004KT 11/05 A2972 RMK A01 T01090054  RH  069%=      5-min Rain = 0
KDO1 180414Z 07004KT 11/05 A2972 RMK A01 T01090054  RH  069%=      5-min Rain = 0
KDO1 180415Z 06003KT 11/05 A2972 RMK A01 T01080054  RH  069%=      5-min Rain = 0
KDO1 180416Z 06004KT 11/05 A2972 RMK A01 T01090054  RH  069%=      5-min Rain = 0
KDO1 180417Z 08005KT 11/05 A2972 RMK A01 T01080053  RH  069%=      5-min Rain = 0
KDO1 180418Z 08004KT 11/05 A2972 RMK A01 T01080053  RH  069%=      5-min Rain = 0
KDO1 180419Z 07005KT 11/05 A2972 RMK A01 T01080053  RH  069%=      5-min Rain = 0
KDO1 180420Z 07004KT 11/05 A2972 RMK A01 T01070053  RH  069%=      5-min Rain = 0
KDO1 180421Z 07004KT 11/05 A2972 RMK A01 T01070053  RH  069%=      5-min Rain = 0
KDO1 180422Z 07004KT 11/05 A2972 RMK A01 T01070053  RH  069%=      5-min Rain = 0
KDO1 180423Z 07004KT 11/05 A2972 RMK A01 T01070053  RH  069%=      5-min Rain = 0
KDO1 180424Z 07004KT 11/05 A2972 RMK A01 T01070053  RH  069%=      5-min Rain = 0
KDO1 180425Z 08004KT 11/05 A2972 RMK A01 T01070053  RH  069%=      5-min Rain = 0
KDO1 180426Z 07003KT 11/05 A2972 RMK A01 T01070052  RH  069%=      5-min Rain = 0
KDO1 180427Z 06003KT 11/05 A2972 RMK A01 T01060052  RH  069%=      5-min Rain = 0
KDO1 180428Z 07003KT 11/05 A2972 RMK A01 T01060052  RH  069%=      5-min Rain = 0
KDO1 180429Z 08004KT 11/05 A2972 RMK A01 T01060052  RH  069%=      5-min Rain = 0
KDO1 180430Z 07003KT 11/05 A2972 RMK A01 T01060052  RH  069%=      5-min Rain = 0
KDO1 180431Z 07003KT 11/05 A2972 RMK A01 T01060052  RH  069%=      5-min Rain = 0
KDO1 180432Z 07003KT 11/05 A2972 RMK A01 T01060052  RH  069%=      5-min Rain = 0
KDO1 180433Z 06004KT 11/05 A2972 RMK A01 T01050052  RH  069%=      5-min Rain = 0
KDO1 180434Z 06004KT 11/05 A2972 RMK A01 T01050052  RH  070%=      5-min Rain = 0
KDO1 180435Z 07004KT 11/05 A2972 RMK A01 T01050052  RH  070%=      5-min Rain = 0
KDO1 180436Z 06004KT 10/05 A2972 RMK A01 T01040052  RH  070%=      5-min Rain = 0
KDO1 180437Z 06004KT 10/05 A2972 RMK A01 T01040052  RH  070%=      5-min Rain = 0
KDO1 180438Z 07004KT 10/05 A2972 RMK A01 T01040052  RH  070%=      5-min Rain = 0
KDO1 180439Z 06004KT 10/05 A2972 RMK A01 T01040052  RH  070%=      5-min Rain = 0
KDO1 180440Z 08004KT 11/05 A2972 RMK A01 T01050052  RH  070%=      5-min Rain = 0
KDO1 180441Z 07004KT 11/05 A2972 RMK A01 T01050052  RH  070%=      5-min Rain = 0
KDO1 180442Z 07004KT 11/05 A2972 RMK A01 T01050052  RH  070%=      5-min Rain = 0
KDO1 180443Z 06004KT 11/05 A2972 RMK A01 T01060052  RH  070%=      5-min Rain = 0
KDO1 180444Z 06003KT 11/05 A2971 RMK A01 T01050052  RH  070%=      5-min Rain = 0
KDO1 180445Z 06004KT 11/05 A2971 RMK A01 T01050052  RH  070%=      5-min Rain = 0
KDO1 180446Z 05003KT 11/05 A2971 RMK A01 T01050052  RH  070%=      5-min Rain = 0
KDO1 180447Z 05004KT 11/05 A2971 RMK A01 T01050052  RH  070%=      5-min Rain = 0
KDO1 180448Z 05004KT 10/05 A2971 RMK A01 T01040052  RH  070%=      5-min Rain = 0
KDO1 180449Z 05004KT 10/05 A2971 RMK A01 T01040052  RH  070%=      5-min Rain = 0
KDO1 180450Z 05004KT 10/05 A2971 RMK A01 T01030051  RH  070%=      5-min Rain = 0
KDO1 180451Z 05004KT 10/05 A2971 RMK A01 T01030051  RH  070%=      5-min Rain = 0
KDO1 180452Z 05003KT 10/05 A2971 RMK A01 T01030051  RH  070%=      5-min Rain = 0
KDO1 180453Z 06004KT 10/05 A2971 RMK A01 T01020051  RH  070%=      5-min Rain = 0
KDO1 180454Z 06003KT 10/05 A2972 RMK A01 T01010050  RH  071%=      5-min Rain = 0
KDO1 180455Z 04002KT 10/05 A2972 RMK A01 T01000050  RH  071%=      5-min Rain = 0
KDO1 180456Z 04003KT 10/05 A2972 RMK A01 T00990049  RH  071%=      5-min Rain = 0
KDO1 180457Z 04002KT 10/05 A2972 RMK A01 T00970047  RH  071%=      5-min Rain = 0
KDO1 180458Z 04002KT 09/05 A2972 RMK A01 T00940046  RH  072%=      5-min Rain = 0
KDO1 180459Z 05003KT 09/04 A2972 RMK A01 T00910044  RH  072%=      5-min Rain = 0
KDO1 180500Z 06003KT 09/04 A2972 RMK A01 T00890044  RH  073%=      5-min Rain = 0
KDO1 180501Z 04003KT 09/04 A2972 RMK A01 T00880044  RH  074%=      5-min Rain = 0
KDO1 180502Z 05002KT 09/04 A2972 RMK A01 T00880044  RH  074%=      5-min Rain = 0
KDO1 180503Z 05003KT 09/04 A2972 RMK A01 T00870044  RH  074%=      5-min Rain = 0
KDO1 180504Z 05003KT 09/04 A2972 RMK A01 T00860044  RH  075%=      5-min Rain = 0
KDO1 180505Z 05003KT 09/05 A2972 RMK A01 T00870045  RH  075%=      5-min Rain = 0
KDO1 180506Z 05003KT 09/05 A2972 RMK A01 T00880046  RH  075%=      5-min Rain = 0
KDO1 180507Z 06004KT 09/05 A2972 RMK A01 T00880046  RH  075%=      5-min Rain = 0
KDO1 180508Z 07004KT 09/05 A2972 RMK A01 T00880046  RH  075%=      5-min Rain = 0
KDO1 180509Z 07003KT 09/05 A2972 RMK A01 T00890047  RH  075%=      5-min Rain = 0
KDO1 180510Z 07004KT 09/05 A2972 RMK A01 T00910048  RH  075%=      5-min Rain = 0
KDO1 180511Z 07004KT 09/05 A2972 RMK A01 T00920049  RH  075%=      5-min Rain = 0
KDO1 180512Z 07005KT 10/05 A2971 RMK A01 T00950051  RH  074%=      5-min Rain = 0
KDO1 180513Z 07005KT 10/05 A2971 RMK A01 T00960052  RH  074%=      5-min Rain = 0
KDO1 180514Z 07005KT 10/05 A2971 RMK A01 T00980052  RH  073%=      5-min Rain = 0
KDO1 180515Z 07006KT 10/05 A2971 RMK A01 T00990052  RH  073%=      5-min Rain = 0
KDO1 180516Z 07006KT 10/05 A2971 RMK A01 T00990052  RH  073%=      5-min Rain = 0
KDO1 180517Z 08005KT 10/05 A2971 RMK A01 T01000053  RH  072%=      5-min Rain = 0
KDO1 180518Z 08006KT 10/05 A2971 RMK A01 T01000052  RH  072%=      5-min Rain = 0
KDO1 180519Z 08005KT 10/05 A2972 RMK A01 T01000052  RH  072%=      5-min Rain = 0
KDO1 180520Z 08005KT 10/05 A2972 RMK A01 T01000052  RH  072%=      5-min Rain = 0
KDO1 180521Z 08005KT 10/05 A2972 RMK A01 T01000052  RH  072%=      5-min Rain = 0
KDO1 180522Z 08005KT 10/05 A2972 RMK A01 T01000052  RH  072%=      5-min Rain = 0
KDO1 180523Z 08005KT 10/05 A2972 RMK A01 T00990052  RH  072%=      5-min Rain = 0
KDO1 180524Z 08004KT 10/05 A2972 RMK A01 T01000052  RH  072%=      5-min Rain = 0
KDO1 180525Z 08004KT 10/05 A2972 RMK A01 T00990052  RH  072%=      5-min Rain = 0
KDO1 180526Z 08004KT 10/05 A2972 RMK A01 T00990051  RH  072%=      5-min Rain = 0
KDO1 180527Z 08004KT 10/05 A2972 RMK A01 T00990051  RH  072%=      5-min Rain = 0
KDO1 180528Z 08004KT 10/05 A2972 RMK A01 T00990051  RH  072%=      5-min Rain = 0
KDO1 180529Z 08003KT 10/05 A2972 RMK A01 T00990051  RH  072%=      5-min Rain = 0
KDO1 180530Z 08004KT 10/05 A2972 RMK A01 T00990051  RH  072%=      5-min Rain = 0
KDO1 180531Z 09004KT 10/05 A2972 RMK A01 T00990051  RH  072%=      5-min Rain = 0
KDO1 180532Z 08004KT 10/05 A2972 RMK A01 T00980051  RH  072%=      5-min Rain = 0
KDO1 180533Z 08005KT 10/05 A2971 RMK A01 T00990052  RH  073%=      5-min Rain = 0
KDO1 180534Z 08005KT 10/05 A2971 RMK A01 T00990052  RH  073%=      5-min Rain = 0
KDO1 180535Z 08005KT 10/05 A2971 RMK A01 T00990052  RH  072%=      5-min Rain = 0
KDO1 180536Z 09005KT 10/05 A2971 RMK A01 T01000052  RH  072%=      5-min Rain = 0
KDO1 180537Z 08005KT 10/05 A2971 RMK A01 T00990052  RH  073%=      5-min Rain = 0
KDO1 180538Z 08005KT 10/05 A2971 RMK A01 T00990052  RH  073%=      5-min Rain = 0
KDO1 180539Z 08005KT 10/05 A2971 RMK A01 T00980052  RH  073%=      5-min Rain = 0
KDO1 180540Z 07005KT 10/05 A2971 RMK A01 T00980051  RH  073%=      5-min Rain = 0
KDO1 180541Z 06005KT 10/05 A2971 RMK A01 T00970051  RH  073%=      5-min Rain = 0
KDO1 180542Z 06005KT 10/05 A2971 RMK A01 T00970051  RH  073%=      5-min Rain = 0
KDO1 180543Z 06005KT 10/05 A2971 RMK A01 T00970051  RH  073%=      5-min Rain = 0
KDO1 180544Z 06005KT 10/05 A2971 RMK A01 T00970051  RH  073%=      5-min Rain = 0
KDO1 180545Z 05005KT 10/05 A2972 RMK A01 T00970051  RH  073%=      5-min Rain = 0
KDO1 180546Z 06005KT 10/05 A2972 RMK A01 T00970052  RH  074%=      5-min Rain = 0
KDO1 180547Z 06005KT 10/05 A2972 RMK A01 T00970052  RH  074%=      5-min Rain = 0
KDO1 180548Z 05005KT 10/05 A2972 RMK A01 T00970052  RH  074%=      5-min Rain = 0
KDO1 180549Z 05005KT 10/05 A2972 RMK A01 T00970052  RH  074%=      5-min Rain = 0
KDO1 180550Z 05005KT 10/05 A2972 RMK A01 T00970052  RH  073%=      5-min Rain = 0
KDO1 180551Z 05005KT 10/05 A2972 RMK A01 T00970051  RH  073%=      5-min Rain = 0
KDO1 180552Z 05005KT 10/05 A2972 RMK A01 T00960051  RH  073%=      5-min Rain = 0
KDO1 180553Z 05005KT 10/05 A2972 RMK A01 T00950051  RH  074%=      5-min Rain = 0
KDO1 180554Z 05005KT 10/05 A2972 RMK A01 T00950050  RH  074%=      5-min Rain = 0
KDO1 180555Z 06006KT 09/05 A2972 RMK A01 T00940050  RH  074%=      5-min Rain = 0
KDO1 180556Z 06005KT 09/05 A2972 RMK A01 T00940051  RH  074%=      5-min Rain = 0
KDO1 180557Z 05005KT 09/05 A2972 RMK A01 T00940051  RH  075%=      5-min Rain = 0
KDO1 180558Z 04004KT 09/05 A2972 RMK A01 T00940051  RH  074%=      5-min Rain = 0
KDO1 180559Z 04003KT 09/05 A2972 RMK A01 T00940051  RH  074%=      5-min Rain = 0
KDO1 180600Z 04003KT 09/05 A2972 RMK A01 T00940051  RH  074%=      5-min Rain = 0

Page generated in 2.2162 seconds.